<?xml version="1.0" encoding="UTF-8" standalone="no" ?>
<gpx xmlns="http://www.topografix.com/GPX/1/1" xmlns:xsi="http://www.w3.org/2001/XMLSchema-instance" xsi:schemaLocation="http://www.topografix.com/GPX/1/1 http://www.topografix.com/GPX/1/1/gpx.xsd" version="1.1" creator="VisuGPX - https://www.visugpx.com">
  <metadata>
    <name>ETAPE 22 Terrades-Requesens Partie 2</name>
    <desc><![CDATA[On peut aller au château en aller et retour :  +2km   +90m]]></desc>
  </metadata>
  <trk>
    <name><![CDATA[Puig Neulós des de Cantallops]]></name>
    <trkseg>
      <trkpt lat="42.4226" lon="2.92686">
        <ele>202.335</ele>
        <time>2014-02-15T06:51:28Z</time>
      </trkpt>
      <trkpt lat="42.42262" lon="2.92685">
        <ele>202.489</ele>
        <time>2014-02-15T06:51:29Z</time>
      </trkpt>
      <trkpt lat="42.4227" lon="2.92686">
        <ele>202.212</ele>
        <time>2014-02-15T06:51:34Z</time>
      </trkpt>
      <trkpt lat="42.42272" lon="2.92685">
        <ele>202.524</ele>
        <time>2014-02-15T06:51:35Z</time>
      </trkpt>
      <trkpt lat="42.42286" lon="2.92681">
        <ele>203.774</ele>
        <time>2014-02-15T06:51:43Z</time>
      </trkpt>
      <trkpt lat="42.42288" lon="2.9268">
        <ele>203.556</ele>
        <time>2014-02-15T06:51:44Z</time>
      </trkpt>
      <trkpt lat="42.42309" lon="2.92676">
        <ele>203.721</ele>
        <time>2014-02-15T06:51:56Z</time>
      </trkpt>
      <trkpt lat="42.42311" lon="2.92675">
        <ele>204.007</ele>
        <time>2014-02-15T06:51:57Z</time>
      </trkpt>
      <trkpt lat="42.42316" lon="2.92673">
        <ele>204.333</ele>
        <time>2014-02-15T06:52:00Z</time>
      </trkpt>
      <trkpt lat="42.42318" lon="2.92671">
        <ele>204.218</ele>
        <time>2014-02-15T06:52:01Z</time>
      </trkpt>
      <trkpt lat="42.4233" lon="2.92667">
        <ele>204.392</ele>
        <time>2014-02-15T06:52:07Z</time>
      </trkpt>
      <trkpt lat="42.42333" lon="2.92665">
        <ele>204.539</ele>
        <time>2014-02-15T06:52:09Z</time>
      </trkpt>
      <trkpt lat="42.42364" lon="2.92653">
        <ele>205.583</ele>
        <time>2014-02-15T06:52:24Z</time>
      </trkpt>
      <trkpt lat="42.42366" lon="2.92653">
        <ele>205.646</ele>
        <time>2014-02-15T06:52:25Z</time>
      </trkpt>
      <trkpt lat="42.42383" lon="2.92653">
        <ele>206.758</ele>
        <time>2014-02-15T06:52:33Z</time>
      </trkpt>
      <trkpt lat="42.42387" lon="2.92652">
        <ele>206.753</ele>
        <time>2014-02-15T06:52:35Z</time>
      </trkpt>
      <trkpt lat="42.42397" lon="2.92647">
        <ele>207.704</ele>
        <time>2014-02-15T06:52:40Z</time>
      </trkpt>
      <trkpt lat="42.424" lon="2.92643">
        <ele>207.814</ele>
        <time>2014-02-15T06:52:42Z</time>
      </trkpt>
      <trkpt lat="42.42441" lon="2.92593">
        <ele>209.407</ele>
        <time>2014-02-15T06:53:08Z</time>
      </trkpt>
      <trkpt lat="42.42443" lon="2.92592">
        <ele>209.661</ele>
        <time>2014-02-15T06:53:09Z</time>
      </trkpt>
      <trkpt lat="42.42467" lon="2.92568">
        <ele>209.726</ele>
        <time>2014-02-15T06:53:25Z</time>
      </trkpt>
      <trkpt lat="42.42488" lon="2.92554">
        <ele>211.65</ele>
        <time>2014-02-15T06:53:37Z</time>
      </trkpt>
      <trkpt lat="42.42494" lon="2.92552">
        <ele>211.157</ele>
        <time>2014-02-15T06:53:40Z</time>
      </trkpt>
      <trkpt lat="42.42496" lon="2.92551">
        <ele>210.991</ele>
        <time>2014-02-15T06:53:41Z</time>
      </trkpt>
      <trkpt lat="42.425" lon="2.92551">
        <ele>210.984</ele>
        <time>2014-02-15T06:53:43Z</time>
      </trkpt>
      <trkpt lat="42.42542" lon="2.92556">
        <ele>214.226</ele>
        <time>2014-02-15T06:54:05Z</time>
      </trkpt>
      <trkpt lat="42.42585" lon="2.92548">
        <ele>218.694</ele>
        <time>2014-02-15T06:54:34Z</time>
      </trkpt>
      <trkpt lat="42.42586" lon="2.92547">
        <ele>218.757</ele>
        <time>2014-02-15T06:54:35Z</time>
      </trkpt>
      <trkpt lat="42.4259" lon="2.92547">
        <ele>218.822</ele>
        <time>2014-02-15T06:54:38Z</time>
      </trkpt>
      <trkpt lat="42.42592" lon="2.92547">
        <ele>218.907</ele>
        <time>2014-02-15T06:54:39Z</time>
      </trkpt>
      <trkpt lat="42.42597" lon="2.92547">
        <ele>219.995</ele>
        <time>2014-02-15T06:54:43Z</time>
      </trkpt>
      <trkpt lat="42.42599" lon="2.92547">
        <ele>219.78</ele>
        <time>2014-02-15T06:54:44Z</time>
      </trkpt>
      <trkpt lat="42.42603" lon="2.92547">
        <ele>219.824</ele>
        <time>2014-02-15T06:54:47Z</time>
      </trkpt>
      <trkpt lat="42.42604" lon="2.92546">
        <ele>219.991</ele>
        <time>2014-02-15T06:54:48Z</time>
      </trkpt>
      <trkpt lat="42.42606" lon="2.92546">
        <ele>220.175</ele>
        <time>2014-02-15T06:54:49Z</time>
      </trkpt>
      <trkpt lat="42.42607" lon="2.92546">
        <ele>220.358</ele>
        <time>2014-02-15T06:54:50Z</time>
      </trkpt>
      <trkpt lat="42.42612" lon="2.92545">
        <ele>220.34</ele>
        <time>2014-02-15T06:54:54Z</time>
      </trkpt>
      <trkpt lat="42.42615" lon="2.92543">
        <ele>220.567</ele>
        <time>2014-02-15T06:54:56Z</time>
      </trkpt>
      <trkpt lat="42.42616" lon="2.92542">
        <ele>220.681</ele>
        <time>2014-02-15T06:54:57Z</time>
      </trkpt>
      <trkpt lat="42.42633" lon="2.92528">
        <ele>221.219</ele>
        <time>2014-02-15T06:55:11Z</time>
      </trkpt>
      <trkpt lat="42.42636" lon="2.92526">
        <ele>221.907</ele>
        <time>2014-02-15T06:55:13Z</time>
      </trkpt>
      <trkpt lat="42.42637" lon="2.92525">
        <ele>222.252</ele>
        <time>2014-02-15T06:55:14Z</time>
      </trkpt>
      <trkpt lat="42.42643" lon="2.92519">
        <ele>223.017</ele>
        <time>2014-02-15T06:55:19Z</time>
      </trkpt>
      <trkpt lat="42.42644" lon="2.92518">
        <ele>223.041</ele>
        <time>2014-02-15T06:55:20Z</time>
      </trkpt>
      <trkpt lat="42.42646" lon="2.92516">
        <ele>223.428</ele>
        <time>2014-02-15T06:55:22Z</time>
      </trkpt>
      <trkpt lat="42.42651" lon="2.92513">
        <ele>224.642</ele>
        <time>2014-02-15T06:55:26Z</time>
      </trkpt>
      <trkpt lat="42.42652" lon="2.92512">
        <ele>224.825</ele>
        <time>2014-02-15T06:55:27Z</time>
      </trkpt>
      <trkpt lat="42.42666" lon="2.92509">
        <ele>224.797</ele>
        <time>2014-02-15T06:55:38Z</time>
      </trkpt>
      <trkpt lat="42.42667" lon="2.92509">
        <ele>224.613</ele>
        <time>2014-02-15T06:55:39Z</time>
      </trkpt>
      <trkpt lat="42.42674" lon="2.92508">
        <ele>226.743</ele>
        <time>2014-02-15T06:55:44Z</time>
      </trkpt>
      <trkpt lat="42.42675" lon="2.92508">
        <ele>227.007</ele>
        <time>2014-02-15T06:55:45Z</time>
      </trkpt>
      <trkpt lat="42.42678" lon="2.92507">
        <ele>227.307</ele>
        <time>2014-02-15T06:55:48Z</time>
      </trkpt>
      <trkpt lat="42.4268" lon="2.92507">
        <ele>227.447</ele>
        <time>2014-02-15T06:55:49Z</time>
      </trkpt>
      <trkpt lat="42.42687" lon="2.92506">
        <ele>227.812</ele>
        <time>2014-02-15T06:55:55Z</time>
      </trkpt>
      <trkpt lat="42.42688" lon="2.92505">
        <ele>227.476</ele>
        <time>2014-02-15T06:55:56Z</time>
      </trkpt>
      <trkpt lat="42.42699" lon="2.92503">
        <ele>228.893</ele>
        <time>2014-02-15T06:56:04Z</time>
      </trkpt>
      <trkpt lat="42.427" lon="2.92503">
        <ele>229.057</ele>
        <time>2014-02-15T06:56:05Z</time>
      </trkpt>
      <trkpt lat="42.42705" lon="2.92502">
        <ele>229.55</ele>
        <time>2014-02-15T06:56:10Z</time>
      </trkpt>
      <trkpt lat="42.42709" lon="2.92502">
        <ele>229.682</ele>
        <time>2014-02-15T06:56:14Z</time>
      </trkpt>
      <trkpt lat="42.42712" lon="2.92502">
        <ele>231.221</ele>
        <time>2014-02-15T06:56:17Z</time>
      </trkpt>
      <trkpt lat="42.42714" lon="2.92502">
        <ele>231.541</ele>
        <time>2014-02-15T06:56:18Z</time>
      </trkpt>
      <trkpt lat="42.42719" lon="2.92501">
        <ele>231.505</ele>
        <time>2014-02-15T06:56:23Z</time>
      </trkpt>
      <trkpt lat="42.42722" lon="2.92499">
        <ele>232.107</ele>
        <time>2014-02-15T06:56:26Z</time>
      </trkpt>
      <trkpt lat="42.42725" lon="2.92498">
        <ele>232.928</ele>
        <time>2014-02-15T06:56:29Z</time>
      </trkpt>
      <trkpt lat="42.42726" lon="2.92498">
        <ele>233.173</ele>
        <time>2014-02-15T06:56:30Z</time>
      </trkpt>
      <trkpt lat="42.42727" lon="2.92498">
        <ele>232.937</ele>
        <time>2014-02-15T06:56:31Z</time>
      </trkpt>
      <trkpt lat="42.42729" lon="2.92498">
        <ele>232.794</ele>
        <time>2014-02-15T06:56:33Z</time>
      </trkpt>
      <trkpt lat="42.42731" lon="2.92497">
        <ele>232.838</ele>
        <time>2014-02-15T06:56:35Z</time>
      </trkpt>
      <trkpt lat="42.42733" lon="2.92497">
        <ele>233.091</ele>
        <time>2014-02-15T06:56:37Z</time>
      </trkpt>
      <trkpt lat="42.42734" lon="2.92497">
        <ele>233.073</ele>
        <time>2014-02-15T06:56:38Z</time>
      </trkpt>
      <trkpt lat="42.42735" lon="2.92496">
        <ele>233.075</ele>
        <time>2014-02-15T06:56:39Z</time>
      </trkpt>
      <trkpt lat="42.42737" lon="2.92496">
        <ele>233.228</ele>
        <time>2014-02-15T06:56:41Z</time>
      </trkpt>
      <trkpt lat="42.42738" lon="2.92496">
        <ele>233.32</ele>
        <time>2014-02-15T06:56:42Z</time>
      </trkpt>
      <trkpt lat="42.42739" lon="2.92496">
        <ele>233.507</ele>
        <time>2014-02-15T06:56:43Z</time>
      </trkpt>
      <trkpt lat="42.42742" lon="2.92495">
        <ele>234.473</ele>
        <time>2014-02-15T06:56:46Z</time>
      </trkpt>
      <trkpt lat="42.42743" lon="2.92495">
        <ele>234.768</ele>
        <time>2014-02-15T06:56:47Z</time>
      </trkpt>
      <trkpt lat="42.42745" lon="2.92494">
        <ele>235.092</ele>
        <time>2014-02-15T06:56:49Z</time>
      </trkpt>
      <trkpt lat="42.42746" lon="2.92494">
        <ele>235.129</ele>
        <time>2014-02-15T06:56:50Z</time>
      </trkpt>
      <trkpt lat="42.42748" lon="2.92494">
        <ele>235.963</ele>
        <time>2014-02-15T06:56:52Z</time>
      </trkpt>
      <trkpt lat="42.4275" lon="2.92494">
        <ele>236.236</ele>
        <time>2014-02-15T06:56:54Z</time>
      </trkpt>
      <trkpt lat="42.42754" lon="2.92492">
        <ele>235.788</ele>
        <time>2014-02-15T06:56:58Z</time>
      </trkpt>
      <trkpt lat="42.42755" lon="2.92492">
        <ele>235.522</ele>
        <time>2014-02-15T06:56:59Z</time>
      </trkpt>
      <trkpt lat="42.42758" lon="2.92492">
        <ele>236.762</ele>
        <time>2014-02-15T06:57:02Z</time>
      </trkpt>
      <trkpt lat="42.42759" lon="2.92492">
        <ele>236.708</ele>
        <time>2014-02-15T06:57:03Z</time>
      </trkpt>
      <trkpt lat="42.4276" lon="2.92492">
        <ele>236.707</ele>
        <time>2014-02-15T06:57:04Z</time>
      </trkpt>
      <trkpt lat="42.42762" lon="2.92491">
        <ele>236.728</ele>
        <time>2014-02-15T06:57:06Z</time>
      </trkpt>
      <trkpt lat="42.42763" lon="2.92491">
        <ele>236.873</ele>
        <time>2014-02-15T06:57:07Z</time>
      </trkpt>
      <trkpt lat="42.42767" lon="2.92489">
        <ele>236.947</ele>
        <time>2014-02-15T06:57:11Z</time>
      </trkpt>
      <trkpt lat="42.42779" lon="2.92483">
        <ele>238.044</ele>
        <time>2014-02-15T06:57:23Z</time>
      </trkpt>
      <trkpt lat="42.42784" lon="2.92482">
        <ele>239.418</ele>
        <time>2014-02-15T06:57:29Z</time>
      </trkpt>
      <trkpt lat="42.42784" lon="2.92481">
        <ele>239.651</ele>
        <time>2014-02-15T06:57:30Z</time>
      </trkpt>
      <trkpt lat="42.42785" lon="2.92481">
        <ele>239.743</ele>
        <time>2014-02-15T06:57:31Z</time>
      </trkpt>
      <trkpt lat="42.42789" lon="2.9248">
        <ele>241.046</ele>
        <time>2014-02-15T06:57:35Z</time>
      </trkpt>
      <trkpt lat="42.42794" lon="2.9248">
        <ele>242.288</ele>
        <time>2014-02-15T06:57:39Z</time>
      </trkpt>
      <trkpt lat="42.42795" lon="2.9248">
        <ele>242.416</ele>
        <time>2014-02-15T06:57:40Z</time>
      </trkpt>
      <trkpt lat="42.42796" lon="2.9248">
        <ele>242.707</ele>
        <time>2014-02-15T06:57:42Z</time>
      </trkpt>
      <trkpt lat="42.42798" lon="2.92481">
        <ele>242.93</ele>
        <time>2014-02-15T06:57:44Z</time>
      </trkpt>
      <trkpt lat="42.42799" lon="2.92482">
        <ele>243.085</ele>
        <time>2014-02-15T06:57:45Z</time>
      </trkpt>
      <trkpt lat="42.428" lon="2.92483">
        <ele>243.239</ele>
        <time>2014-02-15T06:57:46Z</time>
      </trkpt>
      <trkpt lat="42.42801" lon="2.92484">
        <ele>243.326</ele>
        <time>2014-02-15T06:57:47Z</time>
      </trkpt>
      <trkpt lat="42.42806" lon="2.92491">
        <ele>243.27</ele>
        <time>2014-02-15T06:57:53Z</time>
      </trkpt>
      <trkpt lat="42.42806" lon="2.92493">
        <ele>243.163</ele>
        <time>2014-02-15T06:57:54Z</time>
      </trkpt>
      <trkpt lat="42.42806" lon="2.92495">
        <ele>243.015</ele>
        <time>2014-02-15T06:57:56Z</time>
      </trkpt>
      <trkpt lat="42.42807" lon="2.92498">
        <ele>243.238</ele>
        <time>2014-02-15T06:57:58Z</time>
      </trkpt>
      <trkpt lat="42.42807" lon="2.925">
        <ele>243.47</ele>
        <time>2014-02-15T06:57:59Z</time>
      </trkpt>
      <trkpt lat="42.42807" lon="2.92502">
        <ele>243.617</ele>
        <time>2014-02-15T06:58:01Z</time>
      </trkpt>
      <trkpt lat="42.42808" lon="2.92506">
        <ele>243.807</ele>
        <time>2014-02-15T06:58:04Z</time>
      </trkpt>
      <trkpt lat="42.42808" lon="2.92509">
        <ele>243.779</ele>
        <time>2014-02-15T06:58:06Z</time>
      </trkpt>
      <trkpt lat="42.42808" lon="2.92511">
        <ele>244.034</ele>
        <time>2014-02-15T06:58:07Z</time>
      </trkpt>
      <trkpt lat="42.42808" lon="2.92512">
        <ele>244.238</ele>
        <time>2014-02-15T06:58:08Z</time>
      </trkpt>
      <trkpt lat="42.42808" lon="2.92514">
        <ele>244.355</ele>
        <time>2014-02-15T06:58:09Z</time>
      </trkpt>
      <trkpt lat="42.42808" lon="2.92516">
        <ele>244.499</ele>
        <time>2014-02-15T06:58:10Z</time>
      </trkpt>
      <trkpt lat="42.42808" lon="2.92517">
        <ele>244.442</ele>
        <time>2014-02-15T06:58:11Z</time>
      </trkpt>
      <trkpt lat="42.42808" lon="2.92519">
        <ele>244.494</ele>
        <time>2014-02-15T06:58:12Z</time>
      </trkpt>
      <trkpt lat="42.42808" lon="2.9252">
        <ele>244.459</ele>
        <time>2014-02-15T06:58:13Z</time>
      </trkpt>
      <trkpt lat="42.42808" lon="2.92523">
        <ele>245.003</ele>
        <time>2014-02-15T06:58:15Z</time>
      </trkpt>
      <trkpt lat="42.42808" lon="2.92525">
        <ele>245.123</ele>
        <time>2014-02-15T06:58:16Z</time>
      </trkpt>
      <trkpt lat="42.42808" lon="2.92526">
        <ele>245.207</ele>
        <time>2014-02-15T06:58:17Z</time>
      </trkpt>
      <trkpt lat="42.42807" lon="2.92534">
        <ele>245.681</ele>
        <time>2014-02-15T06:58:22Z</time>
      </trkpt>
      <trkpt lat="42.42807" lon="2.9254">
        <ele>245.286</ele>
        <time>2014-02-15T06:58:26Z</time>
      </trkpt>
      <trkpt lat="42.42806" lon="2.92549">
        <ele>245.55</ele>
        <time>2014-02-15T06:58:31Z</time>
      </trkpt>
      <trkpt lat="42.42806" lon="2.9256">
        <ele>247.067</ele>
        <time>2014-02-15T06:58:37Z</time>
      </trkpt>
      <trkpt lat="42.42803" lon="2.92572">
        <ele>246.541</ele>
        <time>2014-02-15T06:58:45Z</time>
      </trkpt>
      <trkpt lat="42.42803" lon="2.92574">
        <ele>247.434</ele>
        <time>2014-02-15T06:58:46Z</time>
      </trkpt>
      <trkpt lat="42.42802" lon="2.92575">
        <ele>248.156</ele>
        <time>2014-02-15T06:58:47Z</time>
      </trkpt>
      <trkpt lat="42.42802" lon="2.92577">
        <ele>248.692</ele>
        <time>2014-02-15T06:58:48Z</time>
      </trkpt>
      <trkpt lat="42.42802" lon="2.92579">
        <ele>248.373</ele>
        <time>2014-02-15T06:58:49Z</time>
      </trkpt>
      <trkpt lat="42.42801" lon="2.92582">
        <ele>247.92</ele>
        <time>2014-02-15T06:58:51Z</time>
      </trkpt>
      <trkpt lat="42.42801" lon="2.92583">
        <ele>248.207</ele>
        <time>2014-02-15T06:58:52Z</time>
      </trkpt>
      <trkpt lat="42.42799" lon="2.92586">
        <ele>248.745</ele>
        <time>2014-02-15T06:58:54Z</time>
      </trkpt>
      <trkpt lat="42.42798" lon="2.92591">
        <ele>249.19</ele>
        <time>2014-02-15T06:58:57Z</time>
      </trkpt>
      <trkpt lat="42.42797" lon="2.92594">
        <ele>249.024</ele>
        <time>2014-02-15T06:58:59Z</time>
      </trkpt>
      <trkpt lat="42.42793" lon="2.92604">
        <ele>250.441</ele>
        <time>2014-02-15T06:59:06Z</time>
      </trkpt>
      <trkpt lat="42.42793" lon="2.92607">
        <ele>250.925</ele>
        <time>2014-02-15T06:59:08Z</time>
      </trkpt>
      <trkpt lat="42.4279" lon="2.92613">
        <ele>250.968</ele>
        <time>2014-02-15T06:59:12Z</time>
      </trkpt>
      <trkpt lat="42.4279" lon="2.92614">
        <ele>250.91</ele>
        <time>2014-02-15T06:59:13Z</time>
      </trkpt>
      <trkpt lat="42.42786" lon="2.92626">
        <ele>253.185</ele>
        <time>2014-02-15T06:59:21Z</time>
      </trkpt>
      <trkpt lat="42.42785" lon="2.92627">
        <ele>253.289</ele>
        <time>2014-02-15T06:59:22Z</time>
      </trkpt>
      <trkpt lat="42.42763" lon="2.92681">
        <ele>257.317</ele>
        <time>2014-02-15T06:59:58Z</time>
      </trkpt>
      <trkpt lat="42.42763" lon="2.92683">
        <ele>257.407</ele>
        <time>2014-02-15T06:59:59Z</time>
      </trkpt>
      <trkpt lat="42.4276" lon="2.92694">
        <ele>257.574</ele>
        <time>2014-02-15T07:00:06Z</time>
      </trkpt>
      <trkpt lat="42.42756" lon="2.92704">
        <ele>258.079</ele>
        <time>2014-02-15T07:00:11Z</time>
      </trkpt>
      <trkpt lat="42.42755" lon="2.92708">
        <ele>258.353</ele>
        <time>2014-02-15T07:00:13Z</time>
      </trkpt>
      <trkpt lat="42.42753" lon="2.92714">
        <ele>258.64</ele>
        <time>2014-02-15T07:00:17Z</time>
      </trkpt>
      <trkpt lat="42.42752" lon="2.92718">
        <ele>258.844</ele>
        <time>2014-02-15T07:00:19Z</time>
      </trkpt>
      <trkpt lat="42.42746" lon="2.92735">
        <ele>260.247</ele>
        <time>2014-02-15T07:00:29Z</time>
      </trkpt>
      <trkpt lat="42.42744" lon="2.92738">
        <ele>260.559</ele>
        <time>2014-02-15T07:00:31Z</time>
      </trkpt>
      <trkpt lat="42.42739" lon="2.92752">
        <ele>260.886</ele>
        <time>2014-02-15T07:00:39Z</time>
      </trkpt>
      <trkpt lat="42.42732" lon="2.92772">
        <ele>262.06</ele>
        <time>2014-02-15T07:00:49Z</time>
      </trkpt>
      <trkpt lat="42.42729" lon="2.9278">
        <ele>262.026</ele>
        <time>2014-02-15T07:00:53Z</time>
      </trkpt>
      <trkpt lat="42.42693" lon="2.92865">
        <ele>263.807</ele>
        <time>2014-02-15T07:01:31Z</time>
      </trkpt>
      <trkpt lat="42.42693" lon="2.92867">
        <ele>263.894</ele>
        <time>2014-02-15T07:01:32Z</time>
      </trkpt>
      <trkpt lat="42.42689" lon="2.92893">
        <ele>263.469</ele>
        <time>2014-02-15T07:01:42Z</time>
      </trkpt>
      <trkpt lat="42.42689" lon="2.92896">
        <ele>263.413</ele>
        <time>2014-02-15T07:01:43Z</time>
      </trkpt>
      <trkpt lat="42.42689" lon="2.92903">
        <ele>263.93</ele>
        <time>2014-02-15T07:01:46Z</time>
      </trkpt>
      <trkpt lat="42.42689" lon="2.92924">
        <ele>265.494</ele>
        <time>2014-02-15T07:01:55Z</time>
      </trkpt>
      <trkpt lat="42.42691" lon="2.92934">
        <ele>266.537</ele>
        <time>2014-02-15T07:02:00Z</time>
      </trkpt>
      <trkpt lat="42.42694" lon="2.92939">
        <ele>267.449</ele>
        <time>2014-02-15T07:02:03Z</time>
      </trkpt>
      <trkpt lat="42.42695" lon="2.92941">
        <ele>267.556</ele>
        <time>2014-02-15T07:02:04Z</time>
      </trkpt>
      <trkpt lat="42.42696" lon="2.92942">
        <ele>267.659</ele>
        <time>2014-02-15T07:02:05Z</time>
      </trkpt>
      <trkpt lat="42.42701" lon="2.92943">
        <ele>267.714</ele>
        <time>2014-02-15T07:02:08Z</time>
      </trkpt>
      <trkpt lat="42.42702" lon="2.92943">
        <ele>267.707</ele>
        <time>2014-02-15T07:02:09Z</time>
      </trkpt>
      <trkpt lat="42.42704" lon="2.92942">
        <ele>268.341</ele>
        <time>2014-02-15T07:02:10Z</time>
      </trkpt>
      <trkpt lat="42.42709" lon="2.92938">
        <ele>269.376</ele>
        <time>2014-02-15T07:02:13Z</time>
      </trkpt>
      <trkpt lat="42.42712" lon="2.92931">
        <ele>270.22</ele>
        <time>2014-02-15T07:02:17Z</time>
      </trkpt>
      <trkpt lat="42.42713" lon="2.92929">
        <ele>270.497</ele>
        <time>2014-02-15T07:02:18Z</time>
      </trkpt>
      <trkpt lat="42.42716" lon="2.92921">
        <ele>270.481</ele>
        <time>2014-02-15T07:02:23Z</time>
      </trkpt>
      <trkpt lat="42.42721" lon="2.92904">
        <ele>271.794</ele>
        <time>2014-02-15T07:02:33Z</time>
      </trkpt>
      <trkpt lat="42.42721" lon="2.92903">
        <ele>271.766</ele>
        <time>2014-02-15T07:02:34Z</time>
      </trkpt>
      <trkpt lat="42.42725" lon="2.92891">
        <ele>272.294</ele>
        <time>2014-02-15T07:02:41Z</time>
      </trkpt>
      <trkpt lat="42.42728" lon="2.92886">
        <ele>273.657</ele>
        <time>2014-02-15T07:02:45Z</time>
      </trkpt>
      <trkpt lat="42.42731" lon="2.92879">
        <ele>273.822</ele>
        <time>2014-02-15T07:02:50Z</time>
      </trkpt>
      <trkpt lat="42.42732" lon="2.92878">
        <ele>274.007</ele>
        <time>2014-02-15T07:02:51Z</time>
      </trkpt>
      <trkpt lat="42.42738" lon="2.92868">
        <ele>274.775</ele>
        <time>2014-02-15T07:02:59Z</time>
      </trkpt>
      <trkpt lat="42.4274" lon="2.92866">
        <ele>275.13</ele>
        <time>2014-02-15T07:03:01Z</time>
      </trkpt>
      <trkpt lat="42.42742" lon="2.92862">
        <ele>275.394</ele>
        <time>2014-02-15T07:03:04Z</time>
      </trkpt>
      <trkpt lat="42.42745" lon="2.92859">
        <ele>275.191</ele>
        <time>2014-02-15T07:03:07Z</time>
      </trkpt>
      <trkpt lat="42.42746" lon="2.92858">
        <ele>275.175</ele>
        <time>2014-02-15T07:03:08Z</time>
      </trkpt>
      <trkpt lat="42.42748" lon="2.92856">
        <ele>275.598</ele>
        <time>2014-02-15T07:03:10Z</time>
      </trkpt>
      <trkpt lat="42.4275" lon="2.92852">
        <ele>276.22</ele>
        <time>2014-02-15T07:03:13Z</time>
      </trkpt>
      <trkpt lat="42.42756" lon="2.92846">
        <ele>277.245</ele>
        <time>2014-02-15T07:03:19Z</time>
      </trkpt>
      <trkpt lat="42.42759" lon="2.92841">
        <ele>278.047</ele>
        <time>2014-02-15T07:03:23Z</time>
      </trkpt>
      <trkpt lat="42.42765" lon="2.92836">
        <ele>277.411</ele>
        <time>2014-02-15T07:03:29Z</time>
      </trkpt>
      <trkpt lat="42.42769" lon="2.9283">
        <ele>279.107</ele>
        <time>2014-02-15T07:03:34Z</time>
      </trkpt>
      <trkpt lat="42.4277" lon="2.92829">
        <ele>279.35</ele>
        <time>2014-02-15T07:03:35Z</time>
      </trkpt>
      <trkpt lat="42.42773" lon="2.92827">
        <ele>280.235</ele>
        <time>2014-02-15T07:03:38Z</time>
      </trkpt>
      <trkpt lat="42.42774" lon="2.92826">
        <ele>279.949</ele>
        <time>2014-02-15T07:03:39Z</time>
      </trkpt>
      <trkpt lat="42.42775" lon="2.92824">
        <ele>279.736</ele>
        <time>2014-02-15T07:03:40Z</time>
      </trkpt>
      <trkpt lat="42.42778" lon="2.92821">
        <ele>279.81</ele>
        <time>2014-02-15T07:03:43Z</time>
      </trkpt>
      <trkpt lat="42.42779" lon="2.9282">
        <ele>279.933</ele>
        <time>2014-02-15T07:03:44Z</time>
      </trkpt>
      <trkpt lat="42.42781" lon="2.92818">
        <ele>280.075</ele>
        <time>2014-02-15T07:03:46Z</time>
      </trkpt>
      <trkpt lat="42.42789" lon="2.9281">
        <ele>281.356</ele>
        <time>2014-02-15T07:03:55Z</time>
      </trkpt>
      <trkpt lat="42.4279" lon="2.92809">
        <ele>281.259</ele>
        <time>2014-02-15T07:03:56Z</time>
      </trkpt>
      <trkpt lat="42.42795" lon="2.92804">
        <ele>281.914</ele>
        <time>2014-02-15T07:04:01Z</time>
      </trkpt>
      <trkpt lat="42.42796" lon="2.92803">
        <ele>282.407</ele>
        <time>2014-02-15T07:04:02Z</time>
      </trkpt>
      <trkpt lat="42.42797" lon="2.92802">
        <ele>282.811</ele>
        <time>2014-02-15T07:04:03Z</time>
      </trkpt>
      <trkpt lat="42.42798" lon="2.92801">
        <ele>283.186</ele>
        <time>2014-02-15T07:04:04Z</time>
      </trkpt>
      <trkpt lat="42.428" lon="2.92799">
        <ele>283.32</ele>
        <time>2014-02-15T07:04:07Z</time>
      </trkpt>
      <trkpt lat="42.42801" lon="2.92798">
        <ele>283.937</ele>
        <time>2014-02-15T07:04:08Z</time>
      </trkpt>
      <trkpt lat="42.42804" lon="2.92795">
        <ele>284.881</ele>
        <time>2014-02-15T07:04:11Z</time>
      </trkpt>
      <trkpt lat="42.42805" lon="2.92794">
        <ele>284.934</ele>
        <time>2014-02-15T07:04:12Z</time>
      </trkpt>
      <trkpt lat="42.42808" lon="2.92791">
        <ele>285.336</ele>
        <time>2014-02-15T07:04:15Z</time>
      </trkpt>
      <trkpt lat="42.42811" lon="2.9279">
        <ele>285.865</ele>
        <time>2014-02-15T07:04:18Z</time>
      </trkpt>
      <trkpt lat="42.42812" lon="2.92788">
        <ele>286.068</ele>
        <time>2014-02-15T07:04:20Z</time>
      </trkpt>
      <trkpt lat="42.42813" lon="2.92788">
        <ele>286.014</ele>
        <time>2014-02-15T07:04:21Z</time>
      </trkpt>
      <trkpt lat="42.42815" lon="2.92785">
        <ele>285.807</ele>
        <time>2014-02-15T07:04:24Z</time>
      </trkpt>
      <trkpt lat="42.42817" lon="2.92783">
        <ele>286.062</ele>
        <time>2014-02-15T07:04:27Z</time>
      </trkpt>
      <trkpt lat="42.42825" lon="2.92777">
        <ele>288.997</ele>
        <time>2014-02-15T07:04:36Z</time>
      </trkpt>
      <trkpt lat="42.42826" lon="2.92774">
        <ele>289.361</ele>
        <time>2014-02-15T07:04:38Z</time>
      </trkpt>
      <trkpt lat="42.42827" lon="2.92774">
        <ele>289.558</ele>
        <time>2014-02-15T07:04:39Z</time>
      </trkpt>
      <trkpt lat="42.42828" lon="2.92773">
        <ele>289.392</ele>
        <time>2014-02-15T07:04:40Z</time>
      </trkpt>
      <trkpt lat="42.4283" lon="2.92771">
        <ele>289.225</ele>
        <time>2014-02-15T07:04:42Z</time>
      </trkpt>
      <trkpt lat="42.42837" lon="2.92763">
        <ele>289.837</ele>
        <time>2014-02-15T07:04:50Z</time>
      </trkpt>
      <trkpt lat="42.42837" lon="2.92762">
        <ele>290.033</ele>
        <time>2014-02-15T07:04:51Z</time>
      </trkpt>
      <trkpt lat="42.42839" lon="2.9276">
        <ele>290.423</ele>
        <time>2014-02-15T07:04:53Z</time>
      </trkpt>
      <trkpt lat="42.4284" lon="2.92759">
        <ele>290.615</ele>
        <time>2014-02-15T07:04:54Z</time>
      </trkpt>
      <trkpt lat="42.42841" lon="2.92758">
        <ele>290.707</ele>
        <time>2014-02-15T07:04:55Z</time>
      </trkpt>
      <trkpt lat="42.42842" lon="2.92756">
        <ele>291.089</ele>
        <time>2014-02-15T07:04:57Z</time>
      </trkpt>
      <trkpt lat="42.42844" lon="2.92754">
        <ele>291.684</ele>
        <time>2014-02-15T07:04:59Z</time>
      </trkpt>
      <trkpt lat="42.42845" lon="2.92752">
        <ele>292.338</ele>
        <time>2014-02-15T07:05:01Z</time>
      </trkpt>
      <trkpt lat="42.42849" lon="2.92748">
        <ele>293.065</ele>
        <time>2014-02-15T07:05:05Z</time>
      </trkpt>
      <trkpt lat="42.42862" lon="2.92737">
        <ele>294.759</ele>
        <time>2014-02-15T07:05:18Z</time>
      </trkpt>
      <trkpt lat="42.4287" lon="2.92738">
        <ele>297.392</ele>
        <time>2014-02-15T07:07:57Z</time>
      </trkpt>
      <trkpt lat="42.42871" lon="2.92739">
        <ele>297.014</ele>
        <time>2014-02-15T07:07:58Z</time>
      </trkpt>
      <trkpt lat="42.42872" lon="2.9274">
        <ele>296.829</ele>
        <time>2014-02-15T07:07:59Z</time>
      </trkpt>
      <trkpt lat="42.42875" lon="2.92741">
        <ele>297.3</ele>
        <time>2014-02-15T07:08:02Z</time>
      </trkpt>
      <trkpt lat="42.42876" lon="2.92742">
        <ele>297.52</ele>
        <time>2014-02-15T07:08:03Z</time>
      </trkpt>
      <trkpt lat="42.42879" lon="2.92743">
        <ele>297.807</ele>
        <time>2014-02-15T07:08:05Z</time>
      </trkpt>
      <trkpt lat="42.42881" lon="2.92745">
        <ele>297.778</ele>
        <time>2014-02-15T07:08:08Z</time>
      </trkpt>
      <trkpt lat="42.42882" lon="2.92747">
        <ele>297.863</ele>
        <time>2014-02-15T07:08:10Z</time>
      </trkpt>
      <trkpt lat="42.42883" lon="2.92748">
        <ele>298.067</ele>
        <time>2014-02-15T07:08:11Z</time>
      </trkpt>
      <trkpt lat="42.42883" lon="2.92749">
        <ele>298.174</ele>
        <time>2014-02-15T07:08:12Z</time>
      </trkpt>
      <trkpt lat="42.42884" lon="2.9275">
        <ele>298.238</ele>
        <time>2014-02-15T07:08:13Z</time>
      </trkpt>
      <trkpt lat="42.42885" lon="2.92751">
        <ele>298.171</ele>
        <time>2014-02-15T07:08:14Z</time>
      </trkpt>
      <trkpt lat="42.42886" lon="2.92753">
        <ele>298.033</ele>
        <time>2014-02-15T07:08:15Z</time>
      </trkpt>
      <trkpt lat="42.42887" lon="2.92754">
        <ele>297.945</ele>
        <time>2014-02-15T07:08:16Z</time>
      </trkpt>
      <trkpt lat="42.4289" lon="2.92755">
        <ele>298.747</ele>
        <time>2014-02-15T07:08:18Z</time>
      </trkpt>
      <trkpt lat="42.42895" lon="2.92762">
        <ele>298.911</ele>
        <time>2014-02-15T07:08:23Z</time>
      </trkpt>
      <trkpt lat="42.42896" lon="2.92763">
        <ele>298.607</ele>
        <time>2014-02-15T07:08:24Z</time>
      </trkpt>
      <trkpt lat="42.42897" lon="2.92764">
        <ele>298.59</ele>
        <time>2014-02-15T07:08:25Z</time>
      </trkpt>
      <trkpt lat="42.429" lon="2.92769">
        <ele>298.935</ele>
        <time>2014-02-15T07:08:29Z</time>
      </trkpt>
      <trkpt lat="42.42901" lon="2.9277">
        <ele>299.349</ele>
        <time>2014-02-15T07:08:30Z</time>
      </trkpt>
      <trkpt lat="42.4291" lon="2.92783">
        <ele>301.526</ele>
        <time>2014-02-15T07:08:41Z</time>
      </trkpt>
      <trkpt lat="42.42917" lon="2.92796">
        <ele>304.54</ele>
        <time>2014-02-15T07:08:51Z</time>
      </trkpt>
      <trkpt lat="42.42917" lon="2.92797">
        <ele>304.643</ele>
        <time>2014-02-15T07:08:52Z</time>
      </trkpt>
      <trkpt lat="42.42919" lon="2.928">
        <ele>304.855</ele>
        <time>2014-02-15T07:08:54Z</time>
      </trkpt>
      <trkpt lat="42.42919" lon="2.92801">
        <ele>305.355</ele>
        <time>2014-02-15T07:08:55Z</time>
      </trkpt>
      <trkpt lat="42.42919" lon="2.92803">
        <ele>305.707</ele>
        <time>2014-02-15T07:08:56Z</time>
      </trkpt>
      <trkpt lat="42.4292" lon="2.92804">
        <ele>305.917</ele>
        <time>2014-02-15T07:08:57Z</time>
      </trkpt>
      <trkpt lat="42.4292" lon="2.92806">
        <ele>306.107</ele>
        <time>2014-02-15T07:08:58Z</time>
      </trkpt>
      <trkpt lat="42.42922" lon="2.92812">
        <ele>306.491</ele>
        <time>2014-02-15T07:09:02Z</time>
      </trkpt>
      <trkpt lat="42.42923" lon="2.92818">
        <ele>306.966</ele>
        <time>2014-02-15T07:09:06Z</time>
      </trkpt>
      <trkpt lat="42.42924" lon="2.9282">
        <ele>307.17</ele>
        <time>2014-02-15T07:09:07Z</time>
      </trkpt>
      <trkpt lat="42.42924" lon="2.92823">
        <ele>307.797</ele>
        <time>2014-02-15T07:09:09Z</time>
      </trkpt>
      <trkpt lat="42.42924" lon="2.92825">
        <ele>307.951</ele>
        <time>2014-02-15T07:09:10Z</time>
      </trkpt>
      <trkpt lat="42.42924" lon="2.92826">
        <ele>308.064</ele>
        <time>2014-02-15T07:09:11Z</time>
      </trkpt>
      <trkpt lat="42.42926" lon="2.92834">
        <ele>309.136</ele>
        <time>2014-02-15T07:09:16Z</time>
      </trkpt>
      <trkpt lat="42.42928" lon="2.92846">
        <ele>309.881</ele>
        <time>2014-02-15T07:09:23Z</time>
      </trkpt>
      <trkpt lat="42.42929" lon="2.92849">
        <ele>310.361</ele>
        <time>2014-02-15T07:09:25Z</time>
      </trkpt>
      <trkpt lat="42.42929" lon="2.92852">
        <ele>310.917</ele>
        <time>2014-02-15T07:09:27Z</time>
      </trkpt>
      <trkpt lat="42.42929" lon="2.92853">
        <ele>311.307</ele>
        <time>2014-02-15T07:09:28Z</time>
      </trkpt>
      <trkpt lat="42.42929" lon="2.92855">
        <ele>311.564</ele>
        <time>2014-02-15T07:09:29Z</time>
      </trkpt>
      <trkpt lat="42.42929" lon="2.92857">
        <ele>311.889</ele>
        <time>2014-02-15T07:09:30Z</time>
      </trkpt>
      <trkpt lat="42.42929" lon="2.92858">
        <ele>311.913</ele>
        <time>2014-02-15T07:09:31Z</time>
      </trkpt>
      <trkpt lat="42.42928" lon="2.9286">
        <ele>312.14</ele>
        <time>2014-02-15T07:09:32Z</time>
      </trkpt>
      <trkpt lat="42.42927" lon="2.9288">
        <ele>312.934</ele>
        <time>2014-02-15T07:09:44Z</time>
      </trkpt>
      <trkpt lat="42.42927" lon="2.92881">
        <ele>312.957</ele>
        <time>2014-02-15T07:09:45Z</time>
      </trkpt>
      <trkpt lat="42.42927" lon="2.92884">
        <ele>314.119</ele>
        <time>2014-02-15T07:09:47Z</time>
      </trkpt>
      <trkpt lat="42.42927" lon="2.92889">
        <ele>314.636</ele>
        <time>2014-02-15T07:09:50Z</time>
      </trkpt>
      <trkpt lat="42.42926" lon="2.929">
        <ele>315.017</ele>
        <time>2014-02-15T07:09:56Z</time>
      </trkpt>
      <trkpt lat="42.42926" lon="2.92902">
        <ele>315.818</ele>
        <time>2014-02-15T07:09:58Z</time>
      </trkpt>
      <trkpt lat="42.42923" lon="2.92908">
        <ele>316.807</ele>
        <time>2014-02-15T07:10:03Z</time>
      </trkpt>
      <trkpt lat="42.42919" lon="2.92916">
        <ele>318.539</ele>
        <time>2014-02-15T07:10:09Z</time>
      </trkpt>
      <trkpt lat="42.42916" lon="2.92919">
        <ele>318.924</ele>
        <time>2014-02-15T07:10:12Z</time>
      </trkpt>
      <trkpt lat="42.42915" lon="2.9292">
        <ele>319.068</ele>
        <time>2014-02-15T07:10:13Z</time>
      </trkpt>
      <trkpt lat="42.42912" lon="2.92925">
        <ele>319.265</ele>
        <time>2014-02-15T07:10:17Z</time>
      </trkpt>
      <trkpt lat="42.42911" lon="2.92925">
        <ele>319.079</ele>
        <time>2014-02-15T07:10:18Z</time>
      </trkpt>
      <trkpt lat="42.4291" lon="2.92926">
        <ele>318.942</ele>
        <time>2014-02-15T07:10:19Z</time>
      </trkpt>
      <trkpt lat="42.42908" lon="2.92929">
        <ele>319.014</ele>
        <time>2014-02-15T07:10:22Z</time>
      </trkpt>
      <trkpt lat="42.42906" lon="2.92932">
        <ele>319.481</ele>
        <time>2014-02-15T07:10:25Z</time>
      </trkpt>
      <trkpt lat="42.42905" lon="2.92935">
        <ele>319.761</ele>
        <time>2014-02-15T07:10:27Z</time>
      </trkpt>
      <trkpt lat="42.42905" lon="2.92936">
        <ele>320.217</ele>
        <time>2014-02-15T07:10:28Z</time>
      </trkpt>
      <trkpt lat="42.42904" lon="2.92939">
        <ele>320.707</ele>
        <time>2014-02-15T07:10:30Z</time>
      </trkpt>
      <trkpt lat="42.42903" lon="2.92943">
        <ele>322.144</ele>
        <time>2014-02-15T07:10:33Z</time>
      </trkpt>
      <trkpt lat="42.42903" lon="2.92944">
        <ele>321.959</ele>
        <time>2014-02-15T07:10:34Z</time>
      </trkpt>
      <trkpt lat="42.42903" lon="2.92947">
        <ele>321.743</ele>
        <time>2014-02-15T07:10:36Z</time>
      </trkpt>
      <trkpt lat="42.42905" lon="2.92955">
        <ele>322.41</ele>
        <time>2014-02-15T07:10:41Z</time>
      </trkpt>
      <trkpt lat="42.42905" lon="2.92956">
        <ele>322.434</ele>
        <time>2014-02-15T07:10:42Z</time>
      </trkpt>
      <trkpt lat="42.42911" lon="2.92969">
        <ele>324.197</ele>
        <time>2014-02-15T07:10:52Z</time>
      </trkpt>
      <trkpt lat="42.42911" lon="2.9297">
        <ele>324.339</ele>
        <time>2014-02-15T07:10:53Z</time>
      </trkpt>
      <trkpt lat="42.42912" lon="2.92972">
        <ele>324.476</ele>
        <time>2014-02-15T07:10:54Z</time>
      </trkpt>
      <trkpt lat="42.42912" lon="2.92973">
        <ele>324.59</ele>
        <time>2014-02-15T07:10:55Z</time>
      </trkpt>
      <trkpt lat="42.42914" lon="2.92977">
        <ele>325.219</ele>
        <time>2014-02-15T07:10:58Z</time>
      </trkpt>
      <trkpt lat="42.42914" lon="2.92978">
        <ele>325.407</ele>
        <time>2014-02-15T07:10:59Z</time>
      </trkpt>
      <trkpt lat="42.42914" lon="2.9298">
        <ele>325.783</ele>
        <time>2014-02-15T07:11:00Z</time>
      </trkpt>
      <trkpt lat="42.42916" lon="2.92984">
        <ele>326.098</ele>
        <time>2014-02-15T07:11:03Z</time>
      </trkpt>
      <trkpt lat="42.42916" lon="2.92986">
        <ele>325.952</ele>
        <time>2014-02-15T07:11:04Z</time>
      </trkpt>
      <trkpt lat="42.42917" lon="2.92989">
        <ele>326.149</ele>
        <time>2014-02-15T07:11:06Z</time>
      </trkpt>
      <trkpt lat="42.42918" lon="2.9299">
        <ele>326.353</ele>
        <time>2014-02-15T07:11:07Z</time>
      </trkpt>
      <trkpt lat="42.4292" lon="2.92996">
        <ele>327.146</ele>
        <time>2014-02-15T07:11:11Z</time>
      </trkpt>
      <trkpt lat="42.42921" lon="2.92997">
        <ele>327.238</ele>
        <time>2014-02-15T07:11:12Z</time>
      </trkpt>
      <trkpt lat="42.42921" lon="2.92999">
        <ele>327.367</ele>
        <time>2014-02-15T07:11:13Z</time>
      </trkpt>
      <trkpt lat="42.42922" lon="2.93002">
        <ele>327.481</ele>
        <time>2014-02-15T07:11:15Z</time>
      </trkpt>
      <trkpt lat="42.42923" lon="2.93005">
        <ele>327.419</ele>
        <time>2014-02-15T07:11:17Z</time>
      </trkpt>
      <trkpt lat="42.42924" lon="2.93009">
        <ele>327.507</ele>
        <time>2014-02-15T07:11:20Z</time>
      </trkpt>
      <trkpt lat="42.42925" lon="2.9301">
        <ele>327.572</ele>
        <time>2014-02-15T07:11:21Z</time>
      </trkpt>
      <trkpt lat="42.42926" lon="2.93012">
        <ele>327.727</ele>
        <time>2014-02-15T07:11:22Z</time>
      </trkpt>
      <trkpt lat="42.42929" lon="2.93022">
        <ele>327.751</ele>
        <time>2014-02-15T07:11:29Z</time>
      </trkpt>
      <trkpt lat="42.42929" lon="2.93024">
        <ele>327.838</ele>
        <time>2014-02-15T07:11:30Z</time>
      </trkpt>
      <trkpt lat="42.4293" lon="2.93027">
        <ele>328.242</ele>
        <time>2014-02-15T07:11:32Z</time>
      </trkpt>
      <trkpt lat="42.4293" lon="2.93034">
        <ele>328.265</ele>
        <time>2014-02-15T07:11:36Z</time>
      </trkpt>
      <trkpt lat="42.4293" lon="2.93036">
        <ele>328.257</ele>
        <time>2014-02-15T07:11:37Z</time>
      </trkpt>
      <trkpt lat="42.42931" lon="2.93037">
        <ele>328.472</ele>
        <time>2014-02-15T07:11:38Z</time>
      </trkpt>
      <trkpt lat="42.42931" lon="2.93051">
        <ele>328.813</ele>
        <time>2014-02-15T07:11:46Z</time>
      </trkpt>
      <trkpt lat="42.42932" lon="2.93055">
        <ele>328.914</ele>
        <time>2014-02-15T07:11:48Z</time>
      </trkpt>
      <trkpt lat="42.42933" lon="2.93058">
        <ele>329.207</ele>
        <time>2014-02-15T07:11:50Z</time>
      </trkpt>
      <trkpt lat="42.42934" lon="2.9306">
        <ele>329.433</ele>
        <time>2014-02-15T07:11:51Z</time>
      </trkpt>
      <trkpt lat="42.42935" lon="2.93061">
        <ele>329.648</ele>
        <time>2014-02-15T07:11:52Z</time>
      </trkpt>
      <trkpt lat="42.42936" lon="2.93061">
        <ele>329.722</ele>
        <time>2014-02-15T07:11:53Z</time>
      </trkpt>
      <trkpt lat="42.42937" lon="2.93062">
        <ele>330.089</ele>
        <time>2014-02-15T07:11:54Z</time>
      </trkpt>
      <trkpt lat="42.42939" lon="2.93061">
        <ele>330.273</ele>
        <time>2014-02-15T07:11:55Z</time>
      </trkpt>
      <trkpt lat="42.4294" lon="2.93061">
        <ele>330.486</ele>
        <time>2014-02-15T07:11:56Z</time>
      </trkpt>
      <trkpt lat="42.42942" lon="2.93059">
        <ele>330.528</ele>
        <time>2014-02-15T07:11:57Z</time>
      </trkpt>
      <trkpt lat="42.42943" lon="2.93058">
        <ele>330.658</ele>
        <time>2014-02-15T07:11:58Z</time>
      </trkpt>
      <trkpt lat="42.42943" lon="2.93056">
        <ele>330.752</ele>
        <time>2014-02-15T07:11:59Z</time>
      </trkpt>
      <trkpt lat="42.42944" lon="2.93054">
        <ele>330.617</ele>
        <time>2014-02-15T07:12:00Z</time>
      </trkpt>
      <trkpt lat="42.42943" lon="2.93052">
        <ele>330.507</ele>
        <time>2014-02-15T07:12:01Z</time>
      </trkpt>
      <trkpt lat="42.42943" lon="2.9305">
        <ele>330.531</ele>
        <time>2014-02-15T07:12:02Z</time>
      </trkpt>
      <trkpt lat="42.42941" lon="2.93042">
        <ele>330.586</ele>
        <time>2014-02-15T07:12:07Z</time>
      </trkpt>
      <trkpt lat="42.42941" lon="2.9304">
        <ele>330.57</ele>
        <time>2014-02-15T07:12:08Z</time>
      </trkpt>
      <trkpt lat="42.42941" lon="2.93039">
        <ele>330.587</ele>
        <time>2014-02-15T07:12:09Z</time>
      </trkpt>
      <trkpt lat="42.4294" lon="2.93038">
        <ele>330.651</ele>
        <time>2014-02-15T07:12:10Z</time>
      </trkpt>
      <trkpt lat="42.4294" lon="2.93036">
        <ele>330.754</ele>
        <time>2014-02-15T07:12:11Z</time>
      </trkpt>
      <trkpt lat="42.4294" lon="2.93033">
        <ele>330.996</ele>
        <time>2014-02-15T07:12:13Z</time>
      </trkpt>
      <trkpt lat="42.4294" lon="2.93032">
        <ele>331.026</ele>
        <time>2014-02-15T07:12:14Z</time>
      </trkpt>
      <trkpt lat="42.4294" lon="2.9303">
        <ele>331.147</ele>
        <time>2014-02-15T07:12:15Z</time>
      </trkpt>
      <trkpt lat="42.42942" lon="2.93027">
        <ele>331.411</ele>
        <time>2014-02-15T07:12:17Z</time>
      </trkpt>
      <trkpt lat="42.42944" lon="2.93025">
        <ele>331.707</ele>
        <time>2014-02-15T07:12:19Z</time>
      </trkpt>
      <trkpt lat="42.42945" lon="2.93024">
        <ele>331.988</ele>
        <time>2014-02-15T07:12:20Z</time>
      </trkpt>
      <trkpt lat="42.42946" lon="2.93025">
        <ele>332.053</ele>
        <time>2014-02-15T07:12:21Z</time>
      </trkpt>
      <trkpt lat="42.42947" lon="2.93025">
        <ele>332.137</ele>
        <time>2014-02-15T07:12:22Z</time>
      </trkpt>
      <trkpt lat="42.42948" lon="2.93027">
        <ele>332.564</ele>
        <time>2014-02-15T07:12:23Z</time>
      </trkpt>
      <trkpt lat="42.42949" lon="2.93028">
        <ele>332.838</ele>
        <time>2014-02-15T07:12:24Z</time>
      </trkpt>
      <trkpt lat="42.4295" lon="2.93031">
        <ele>333.421</ele>
        <time>2014-02-15T07:12:26Z</time>
      </trkpt>
      <trkpt lat="42.4295" lon="2.93033">
        <ele>333.683</ele>
        <time>2014-02-15T07:12:27Z</time>
      </trkpt>
      <trkpt lat="42.4295" lon="2.93037">
        <ele>333.658</ele>
        <time>2014-02-15T07:12:29Z</time>
      </trkpt>
      <trkpt lat="42.42951" lon="2.93043">
        <ele>333.252</ele>
        <time>2014-02-15T07:12:32Z</time>
      </trkpt>
      <trkpt lat="42.42951" lon="2.93049">
        <ele>333.117</ele>
        <time>2014-02-15T07:12:35Z</time>
      </trkpt>
      <trkpt lat="42.42951" lon="2.93055">
        <ele>333.207</ele>
        <time>2014-02-15T07:12:38Z</time>
      </trkpt>
      <trkpt lat="42.42953" lon="2.93061">
        <ele>334.071</ele>
        <time>2014-02-15T07:12:41Z</time>
      </trkpt>
      <trkpt lat="42.42954" lon="2.93068">
        <ele>334.516</ele>
        <time>2014-02-15T07:12:44Z</time>
      </trkpt>
      <trkpt lat="42.42953" lon="2.93073">
        <ele>334.41</ele>
        <time>2014-02-15T07:12:46Z</time>
      </trkpt>
      <trkpt lat="42.42952" lon="2.93075">
        <ele>334.357</ele>
        <time>2014-02-15T07:12:47Z</time>
      </trkpt>
      <trkpt lat="42.42951" lon="2.93077">
        <ele>334.181</ele>
        <time>2014-02-15T07:12:48Z</time>
      </trkpt>
      <trkpt lat="42.42944" lon="2.93083">
        <ele>334.884</ele>
        <time>2014-02-15T07:12:52Z</time>
      </trkpt>
      <trkpt lat="42.42929" lon="2.93094">
        <ele>336.936</ele>
        <time>2014-02-15T07:13:03Z</time>
      </trkpt>
      <trkpt lat="42.42926" lon="2.931">
        <ele>337.118</ele>
        <time>2014-02-15T07:13:06Z</time>
      </trkpt>
      <trkpt lat="42.42926" lon="2.93104">
        <ele>337.298</ele>
        <time>2014-02-15T07:13:08Z</time>
      </trkpt>
      <trkpt lat="42.42925" lon="2.93108">
        <ele>337.317</ele>
        <time>2014-02-15T07:13:10Z</time>
      </trkpt>
      <trkpt lat="42.42927" lon="2.93124">
        <ele>338.107</ele>
        <time>2014-02-15T07:13:18Z</time>
      </trkpt>
      <trkpt lat="42.42928" lon="2.9313">
        <ele>338.367</ele>
        <time>2014-02-15T07:13:21Z</time>
      </trkpt>
      <trkpt lat="42.42929" lon="2.93133">
        <ele>338.492</ele>
        <time>2014-02-15T07:13:23Z</time>
      </trkpt>
      <trkpt lat="42.4293" lon="2.93138">
        <ele>338.586</ele>
        <time>2014-02-15T07:13:25Z</time>
      </trkpt>
      <trkpt lat="42.42931" lon="2.93146">
        <ele>339.443</ele>
        <time>2014-02-15T07:13:29Z</time>
      </trkpt>
      <trkpt lat="42.42931" lon="2.93148">
        <ele>339.587</ele>
        <time>2014-02-15T07:13:30Z</time>
      </trkpt>
      <trkpt lat="42.42933" lon="2.93158">
        <ele>340.31</ele>
        <time>2014-02-15T07:13:35Z</time>
      </trkpt>
      <trkpt lat="42.42934" lon="2.93163">
        <ele>340.162</ele>
        <time>2014-02-15T07:13:38Z</time>
      </trkpt>
      <trkpt lat="42.42935" lon="2.93165">
        <ele>340.499</ele>
        <time>2014-02-15T07:13:39Z</time>
      </trkpt>
      <trkpt lat="42.42936" lon="2.93169">
        <ele>340.807</ele>
        <time>2014-02-15T07:13:41Z</time>
      </trkpt>
      <trkpt lat="42.42937" lon="2.9317">
        <ele>341.027</ele>
        <time>2014-02-15T07:13:42Z</time>
      </trkpt>
      <trkpt lat="42.42947" lon="2.93184">
        <ele>340.907</ele>
        <time>2014-02-15T07:13:51Z</time>
      </trkpt>
      <trkpt lat="42.4295" lon="2.93187">
        <ele>340.975</ele>
        <time>2014-02-15T07:13:53Z</time>
      </trkpt>
      <trkpt lat="42.42951" lon="2.93189">
        <ele>340.97</ele>
        <time>2014-02-15T07:13:54Z</time>
      </trkpt>
      <trkpt lat="42.42954" lon="2.93193">
        <ele>341.394</ele>
        <time>2014-02-15T07:13:57Z</time>
      </trkpt>
      <trkpt lat="42.42963" lon="2.9321">
        <ele>341.711</ele>
        <time>2014-02-15T07:14:06Z</time>
      </trkpt>
      <trkpt lat="42.42964" lon="2.93212">
        <ele>341.875</ele>
        <time>2014-02-15T07:14:07Z</time>
      </trkpt>
      <trkpt lat="42.42967" lon="2.93223">
        <ele>342.548</ele>
        <time>2014-02-15T07:14:12Z</time>
      </trkpt>
      <trkpt lat="42.42967" lon="2.93225">
        <ele>342.88</ele>
        <time>2014-02-15T07:14:13Z</time>
      </trkpt>
      <trkpt lat="42.42967" lon="2.93227">
        <ele>342.945</ele>
        <time>2014-02-15T07:14:14Z</time>
      </trkpt>
      <trkpt lat="42.42963" lon="2.93239">
        <ele>343.447</ele>
        <time>2014-02-15T07:14:20Z</time>
      </trkpt>
      <trkpt lat="42.42956" lon="2.93253">
        <ele>344.111</ele>
        <time>2014-02-15T07:14:28Z</time>
      </trkpt>
      <trkpt lat="42.42955" lon="2.93255">
        <ele>344.107</ele>
        <time>2014-02-15T07:14:29Z</time>
      </trkpt>
      <trkpt lat="42.42952" lon="2.93268">
        <ele>343.76</ele>
        <time>2014-02-15T07:14:35Z</time>
      </trkpt>
      <trkpt lat="42.42951" lon="2.93279">
        <ele>345.055</ele>
        <time>2014-02-15T07:14:40Z</time>
      </trkpt>
      <trkpt lat="42.42951" lon="2.93291">
        <ele>345.269</ele>
        <time>2014-02-15T07:14:45Z</time>
      </trkpt>
      <trkpt lat="42.42954" lon="2.93304">
        <ele>346.136</ele>
        <time>2014-02-15T07:14:51Z</time>
      </trkpt>
      <trkpt lat="42.42968" lon="2.9334">
        <ele>346.96</ele>
        <time>2014-02-15T07:15:07Z</time>
      </trkpt>
      <trkpt lat="42.42969" lon="2.93342">
        <ele>346.983</ele>
        <time>2014-02-15T07:15:08Z</time>
      </trkpt>
      <trkpt lat="42.4301" lon="2.93384">
        <ele>349.495</ele>
        <time>2014-02-15T07:15:35Z</time>
      </trkpt>
      <trkpt lat="42.43021" lon="2.93402">
        <ele>350.949</ele>
        <time>2014-02-15T07:15:44Z</time>
      </trkpt>
      <trkpt lat="42.43031" lon="2.93425">
        <ele>351.302</ele>
        <time>2014-02-15T07:15:55Z</time>
      </trkpt>
      <trkpt lat="42.43031" lon="2.93427">
        <ele>351.222</ele>
        <time>2014-02-15T07:15:56Z</time>
      </trkpt>
      <trkpt lat="42.43033" lon="2.93431">
        <ele>351.807</ele>
        <time>2014-02-15T07:15:58Z</time>
      </trkpt>
      <trkpt lat="42.43035" lon="2.93435">
        <ele>352.31</ele>
        <time>2014-02-15T07:16:00Z</time>
      </trkpt>
      <trkpt lat="42.43037" lon="2.9344">
        <ele>352.645</ele>
        <time>2014-02-15T07:16:02Z</time>
      </trkpt>
      <trkpt lat="42.43049" lon="2.93469">
        <ele>352.899</ele>
        <time>2014-02-15T07:16:14Z</time>
      </trkpt>
      <trkpt lat="42.4305" lon="2.93471">
        <ele>352.686</ele>
        <time>2014-02-15T07:16:15Z</time>
      </trkpt>
      <trkpt lat="42.43073" lon="2.93501">
        <ele>354.45</ele>
        <time>2014-02-15T07:16:31Z</time>
      </trkpt>
      <trkpt lat="42.43079" lon="2.93514">
        <ele>354.773</ele>
        <time>2014-02-15T07:16:37Z</time>
      </trkpt>
      <trkpt lat="42.43081" lon="2.93532">
        <ele>355.265</ele>
        <time>2014-02-15T07:16:46Z</time>
      </trkpt>
      <trkpt lat="42.43081" lon="2.93534">
        <ele>355.018</ele>
        <time>2014-02-15T07:16:47Z</time>
      </trkpt>
      <trkpt lat="42.43083" lon="2.93557">
        <ele>356.398</ele>
        <time>2014-02-15T07:16:57Z</time>
      </trkpt>
      <trkpt lat="42.43091" lon="2.93589">
        <ele>357.717</ele>
        <time>2014-02-15T07:17:10Z</time>
      </trkpt>
      <trkpt lat="42.43095" lon="2.93599">
        <ele>358.707</ele>
        <time>2014-02-15T07:17:14Z</time>
      </trkpt>
      <trkpt lat="42.43098" lon="2.93603">
        <ele>358.857</ele>
        <time>2014-02-15T07:17:16Z</time>
      </trkpt>
      <trkpt lat="42.43108" lon="2.93612">
        <ele>358.922</ele>
        <time>2014-02-15T07:17:22Z</time>
      </trkpt>
      <trkpt lat="42.4311" lon="2.93613">
        <ele>359.086</ele>
        <time>2014-02-15T07:17:23Z</time>
      </trkpt>
      <trkpt lat="42.43121" lon="2.93617">
        <ele>359.253</ele>
        <time>2014-02-15T07:17:29Z</time>
      </trkpt>
      <trkpt lat="42.43142" lon="2.9362">
        <ele>360.067</ele>
        <time>2014-02-15T07:17:40Z</time>
      </trkpt>
      <trkpt lat="42.4315" lon="2.93624">
        <ele>360.99</ele>
        <time>2014-02-15T07:17:45Z</time>
      </trkpt>
      <trkpt lat="42.43152" lon="2.93626">
        <ele>361.222</ele>
        <time>2014-02-15T07:17:46Z</time>
      </trkpt>
      <trkpt lat="42.43157" lon="2.93633">
        <ele>361.023</ele>
        <time>2014-02-15T07:17:50Z</time>
      </trkpt>
      <trkpt lat="42.43161" lon="2.93642">
        <ele>360.983</ele>
        <time>2014-02-15T07:17:54Z</time>
      </trkpt>
      <trkpt lat="42.43174" lon="2.93687">
        <ele>362.611</ele>
        <time>2014-02-15T07:18:13Z</time>
      </trkpt>
      <trkpt lat="42.43184" lon="2.93711">
        <ele>363.807</ele>
        <time>2014-02-15T07:18:23Z</time>
      </trkpt>
      <trkpt lat="42.43187" lon="2.93717">
        <ele>363.888</ele>
        <time>2014-02-15T07:18:26Z</time>
      </trkpt>
      <trkpt lat="42.43189" lon="2.93719">
        <ele>364.133</ele>
        <time>2014-02-15T07:18:27Z</time>
      </trkpt>
      <trkpt lat="42.43192" lon="2.93726">
        <ele>364.577</ele>
        <time>2014-02-15T07:18:30Z</time>
      </trkpt>
      <trkpt lat="42.43209" lon="2.93749">
        <ele>365.244</ele>
        <time>2014-02-15T07:18:42Z</time>
      </trkpt>
      <trkpt lat="42.4321" lon="2.93751">
        <ele>365.298</ele>
        <time>2014-02-15T07:18:43Z</time>
      </trkpt>
      <trkpt lat="42.43211" lon="2.93753">
        <ele>365.231</ele>
        <time>2014-02-15T07:18:44Z</time>
      </trkpt>
      <trkpt lat="42.43215" lon="2.93755">
        <ele>365.443</ele>
        <time>2014-02-15T07:18:46Z</time>
      </trkpt>
      <trkpt lat="42.43219" lon="2.93756">
        <ele>365.792</ele>
        <time>2014-02-15T07:18:48Z</time>
      </trkpt>
      <trkpt lat="42.43223" lon="2.93755">
        <ele>365.973</ele>
        <time>2014-02-15T07:18:50Z</time>
      </trkpt>
      <trkpt lat="42.43232" lon="2.9375">
        <ele>366.82</ele>
        <time>2014-02-15T07:18:55Z</time>
      </trkpt>
      <trkpt lat="42.43276" lon="2.93717">
        <ele>368.207</ele>
        <time>2014-02-15T07:19:21Z</time>
      </trkpt>
      <trkpt lat="42.43287" lon="2.93711">
        <ele>368.625</ele>
        <time>2014-02-15T07:19:27Z</time>
      </trkpt>
      <trkpt lat="42.43292" lon="2.9371">
        <ele>369.58</ele>
        <time>2014-02-15T07:19:30Z</time>
      </trkpt>
      <trkpt lat="42.43294" lon="2.9371">
        <ele>369.544</ele>
        <time>2014-02-15T07:19:31Z</time>
      </trkpt>
      <trkpt lat="42.43298" lon="2.93711">
        <ele>369.491</ele>
        <time>2014-02-15T07:19:33Z</time>
      </trkpt>
      <trkpt lat="42.433" lon="2.93712">
        <ele>369.585</ele>
        <time>2014-02-15T07:19:34Z</time>
      </trkpt>
      <trkpt lat="42.43301" lon="2.93714">
        <ele>369.758</ele>
        <time>2014-02-15T07:19:35Z</time>
      </trkpt>
      <trkpt lat="42.43302" lon="2.93716">
        <ele>369.88</ele>
        <time>2014-02-15T07:19:36Z</time>
      </trkpt>
      <trkpt lat="42.43303" lon="2.93718">
        <ele>370.072</ele>
        <time>2014-02-15T07:19:37Z</time>
      </trkpt>
      <trkpt lat="42.43303" lon="2.93723">
        <ele>370.313</ele>
        <time>2014-02-15T07:19:39Z</time>
      </trkpt>
      <trkpt lat="42.43301" lon="2.93738">
        <ele>370.614</ele>
        <time>2014-02-15T07:19:45Z</time>
      </trkpt>
      <trkpt lat="42.433" lon="2.93741">
        <ele>370.607</ele>
        <time>2014-02-15T07:19:46Z</time>
      </trkpt>
      <trkpt lat="42.43298" lon="2.93757">
        <ele>371.693</ele>
        <time>2014-02-15T07:19:52Z</time>
      </trkpt>
      <trkpt lat="42.43298" lon="2.93759">
        <ele>371.848</ele>
        <time>2014-02-15T07:19:53Z</time>
      </trkpt>
      <trkpt lat="42.43298" lon="2.9376">
        <ele>371.912</ele>
        <time>2014-02-15T07:19:54Z</time>
      </trkpt>
      <trkpt lat="42.43298" lon="2.93771">
        <ele>372.369</ele>
        <time>2014-02-15T07:19:59Z</time>
      </trkpt>
      <trkpt lat="42.43299" lon="2.93779">
        <ele>372.633</ele>
        <time>2014-02-15T07:20:02Z</time>
      </trkpt>
      <trkpt lat="42.43301" lon="2.93784">
        <ele>372.676</ele>
        <time>2014-02-15T07:20:04Z</time>
      </trkpt>
      <trkpt lat="42.43302" lon="2.93786">
        <ele>372.748</ele>
        <time>2014-02-15T07:20:05Z</time>
      </trkpt>
      <trkpt lat="42.43312" lon="2.93799">
        <ele>372.966</ele>
        <time>2014-02-15T07:20:12Z</time>
      </trkpt>
      <trkpt lat="42.43313" lon="2.93801">
        <ele>373.229</ele>
        <time>2014-02-15T07:20:13Z</time>
      </trkpt>
      <trkpt lat="42.43314" lon="2.93804">
        <ele>373.421</ele>
        <time>2014-02-15T07:20:14Z</time>
      </trkpt>
      <trkpt lat="42.43314" lon="2.93806">
        <ele>373.107</ele>
        <time>2014-02-15T07:20:15Z</time>
      </trkpt>
      <trkpt lat="42.43314" lon="2.93809">
        <ele>372.992</ele>
        <time>2014-02-15T07:20:16Z</time>
      </trkpt>
      <trkpt lat="42.43314" lon="2.93813">
        <ele>372.857</ele>
        <time>2014-02-15T07:20:17Z</time>
      </trkpt>
      <trkpt lat="42.43313" lon="2.93816">
        <ele>373.381</ele>
        <time>2014-02-15T07:20:18Z</time>
      </trkpt>
      <trkpt lat="42.43311" lon="2.9382">
        <ele>373.948</ele>
        <time>2014-02-15T07:20:20Z</time>
      </trkpt>
      <trkpt lat="42.43296" lon="2.93838">
        <ele>374.552</ele>
        <time>2014-02-15T07:20:30Z</time>
      </trkpt>
      <trkpt lat="42.43292" lon="2.93844">
        <ele>375.515</ele>
        <time>2014-02-15T07:20:33Z</time>
      </trkpt>
      <trkpt lat="42.43291" lon="2.93847">
        <ele>375.417</ele>
        <time>2014-02-15T07:20:34Z</time>
      </trkpt>
      <trkpt lat="42.43288" lon="2.93859">
        <ele>376.227</ele>
        <time>2014-02-15T07:20:39Z</time>
      </trkpt>
      <trkpt lat="42.43288" lon="2.93875">
        <ele>376.168</ele>
        <time>2014-02-15T07:20:45Z</time>
      </trkpt>
      <trkpt lat="42.43287" lon="2.93879">
        <ele>376.014</ele>
        <time>2014-02-15T07:20:47Z</time>
      </trkpt>
      <trkpt lat="42.43284" lon="2.93888">
        <ele>376.307</ele>
        <time>2014-02-15T07:20:50Z</time>
      </trkpt>
      <trkpt lat="42.43282" lon="2.9389">
        <ele>376.528</ele>
        <time>2014-02-15T07:20:51Z</time>
      </trkpt>
      <trkpt lat="42.43276" lon="2.93898">
        <ele>376.883</ele>
        <time>2014-02-15T07:20:55Z</time>
      </trkpt>
      <trkpt lat="42.43274" lon="2.939">
        <ele>376.947</ele>
        <time>2014-02-15T07:20:56Z</time>
      </trkpt>
      <trkpt lat="42.4327" lon="2.93903">
        <ele>376.344</ele>
        <time>2014-02-15T07:20:58Z</time>
      </trkpt>
      <trkpt lat="42.43268" lon="2.93904">
        <ele>376.148</ele>
        <time>2014-02-15T07:20:59Z</time>
      </trkpt>
      <trkpt lat="42.43266" lon="2.93906">
        <ele>377.031</ele>
        <time>2014-02-15T07:21:00Z</time>
      </trkpt>
      <trkpt lat="42.4325" lon="2.93926">
        <ele>378.743</ele>
        <time>2014-02-15T07:21:10Z</time>
      </trkpt>
      <trkpt lat="42.43243" lon="2.93931">
        <ele>378.333</ele>
        <time>2014-02-15T07:21:14Z</time>
      </trkpt>
      <trkpt lat="42.43239" lon="2.93932">
        <ele>378.623</ele>
        <time>2014-02-15T07:21:16Z</time>
      </trkpt>
      <trkpt lat="42.43218" lon="2.93929">
        <ele>380.015</ele>
        <time>2014-02-15T07:21:27Z</time>
      </trkpt>
      <trkpt lat="42.43211" lon="2.93927">
        <ele>380.507</ele>
        <time>2014-02-15T07:21:31Z</time>
      </trkpt>
      <trkpt lat="42.43209" lon="2.93927">
        <ele>380.639</ele>
        <time>2014-02-15T07:21:32Z</time>
      </trkpt>
      <trkpt lat="42.43201" lon="2.93929">
        <ele>381.014</ele>
        <time>2014-02-15T07:21:36Z</time>
      </trkpt>
      <trkpt lat="42.43199" lon="2.9393">
        <ele>381.168</ele>
        <time>2014-02-15T07:21:37Z</time>
      </trkpt>
      <trkpt lat="42.43141" lon="2.93964">
        <ele>383.775</ele>
        <time>2014-02-15T07:22:07Z</time>
      </trkpt>
      <trkpt lat="42.43138" lon="2.93968">
        <ele>383.649</ele>
        <time>2014-02-15T07:22:09Z</time>
      </trkpt>
      <trkpt lat="42.43134" lon="2.93976">
        <ele>383.192</ele>
        <time>2014-02-15T07:22:12Z</time>
      </trkpt>
      <trkpt lat="42.43133" lon="2.93979">
        <ele>383.424</ele>
        <time>2014-02-15T07:22:13Z</time>
      </trkpt>
      <trkpt lat="42.4313" lon="2.93993">
        <ele>384.555</ele>
        <time>2014-02-15T07:22:18Z</time>
      </trkpt>
      <trkpt lat="42.4313" lon="2.93998">
        <ele>384.407</ele>
        <time>2014-02-15T07:22:20Z</time>
      </trkpt>
      <trkpt lat="42.43129" lon="2.94">
        <ele>384.417</ele>
        <time>2014-02-15T07:22:21Z</time>
      </trkpt>
      <trkpt lat="42.43129" lon="2.94019">
        <ele>385.107</ele>
        <time>2014-02-15T07:22:28Z</time>
      </trkpt>
      <trkpt lat="42.43129" lon="2.94022">
        <ele>385.521</ele>
        <time>2014-02-15T07:22:29Z</time>
      </trkpt>
      <trkpt lat="42.4313" lon="2.94047">
        <ele>386.066</ele>
        <time>2014-02-15T07:22:38Z</time>
      </trkpt>
      <trkpt lat="42.4313" lon="2.9405">
        <ele>386.38</ele>
        <time>2014-02-15T07:22:39Z</time>
      </trkpt>
      <trkpt lat="42.43138" lon="2.94082">
        <ele>386.877</ele>
        <time>2014-02-15T07:22:51Z</time>
      </trkpt>
      <trkpt lat="42.43138" lon="2.94084">
        <ele>387.321</ele>
        <time>2014-02-15T07:22:52Z</time>
      </trkpt>
      <trkpt lat="42.43138" lon="2.94088">
        <ele>387.954</ele>
        <time>2014-02-15T07:22:54Z</time>
      </trkpt>
      <trkpt lat="42.43139" lon="2.94096">
        <ele>387.726</ele>
        <time>2014-02-15T07:22:57Z</time>
      </trkpt>
      <trkpt lat="42.43139" lon="2.94101">
        <ele>388.738</ele>
        <time>2014-02-15T07:22:59Z</time>
      </trkpt>
      <trkpt lat="42.43142" lon="2.94117">
        <ele>389.47</ele>
        <time>2014-02-15T07:23:05Z</time>
      </trkpt>
      <trkpt lat="42.43142" lon="2.94126">
        <ele>389.917</ele>
        <time>2014-02-15T07:23:08Z</time>
      </trkpt>
      <trkpt lat="42.43144" lon="2.94137">
        <ele>389.907</ele>
        <time>2014-02-15T07:23:12Z</time>
      </trkpt>
      <trkpt lat="42.43146" lon="2.9415">
        <ele>389.529</ele>
        <time>2014-02-15T07:23:17Z</time>
      </trkpt>
      <trkpt lat="42.43148" lon="2.94158">
        <ele>390.114</ele>
        <time>2014-02-15T07:23:20Z</time>
      </trkpt>
      <trkpt lat="42.43148" lon="2.94165">
        <ele>390.278</ele>
        <time>2014-02-15T07:23:23Z</time>
      </trkpt>
      <trkpt lat="42.43151" lon="2.94172">
        <ele>390.575</ele>
        <time>2014-02-15T07:23:37Z</time>
      </trkpt>
      <trkpt lat="42.43151" lon="2.94172">
        <ele>390.549</ele>
        <time>2014-02-15T07:23:38Z</time>
      </trkpt>
      <trkpt lat="42.43151" lon="2.94172">
        <ele>390.522</ele>
        <time>2014-02-15T07:23:39Z</time>
      </trkpt>
      <trkpt lat="42.43152" lon="2.94173">
        <ele>390.564</ele>
        <time>2014-02-15T07:23:40Z</time>
      </trkpt>
      <trkpt lat="42.43159" lon="2.94173">
        <ele>389.612</ele>
        <time>2014-02-15T07:28:55Z</time>
      </trkpt>
      <trkpt lat="42.43161" lon="2.94172">
        <ele>389.932</ele>
        <time>2014-02-15T07:28:57Z</time>
      </trkpt>
      <trkpt lat="42.43175" lon="2.94168">
        <ele>390.105</ele>
        <time>2014-02-15T07:29:08Z</time>
      </trkpt>
      <trkpt lat="42.43177" lon="2.94167">
        <ele>390.507</ele>
        <time>2014-02-15T07:29:10Z</time>
      </trkpt>
      <trkpt lat="42.4318" lon="2.94167">
        <ele>390.337</ele>
        <time>2014-02-15T07:29:15Z</time>
      </trkpt>
      <trkpt lat="42.43203" lon="2.94158">
        <ele>389.842</ele>
        <time>2014-02-15T07:30:40Z</time>
      </trkpt>
      <trkpt lat="42.43208" lon="2.94158">
        <ele>389.816</ele>
        <time>2014-02-15T07:30:42Z</time>
      </trkpt>
      <trkpt lat="42.43214" lon="2.94158">
        <ele>391.073</ele>
        <time>2014-02-15T07:30:45Z</time>
      </trkpt>
      <trkpt lat="42.43217" lon="2.94158">
        <ele>391.367</ele>
        <time>2014-02-15T07:30:46Z</time>
      </trkpt>
      <trkpt lat="42.4323" lon="2.94157">
        <ele>391.62</ele>
        <time>2014-02-15T07:30:51Z</time>
      </trkpt>
      <trkpt lat="42.43262" lon="2.9416">
        <ele>391.322</ele>
        <time>2014-02-15T07:31:04Z</time>
      </trkpt>
      <trkpt lat="42.43265" lon="2.9416">
        <ele>391.412</ele>
        <time>2014-02-15T07:31:05Z</time>
      </trkpt>
      <trkpt lat="42.43377" lon="2.94141">
        <ele>393.132</ele>
        <time>2014-02-15T07:31:46Z</time>
      </trkpt>
      <trkpt lat="42.43383" lon="2.94143">
        <ele>392.805</ele>
        <time>2014-02-15T07:31:48Z</time>
      </trkpt>
      <trkpt lat="42.43386" lon="2.94145">
        <ele>392.507</ele>
        <time>2014-02-15T07:31:49Z</time>
      </trkpt>
      <trkpt lat="42.4339" lon="2.94146">
        <ele>392.237</ele>
        <time>2014-02-15T07:31:50Z</time>
      </trkpt>
      <trkpt lat="42.43405" lon="2.94162">
        <ele>392.922</ele>
        <time>2014-02-15T07:31:56Z</time>
      </trkpt>
      <trkpt lat="42.43408" lon="2.94164">
        <ele>393.086</ele>
        <time>2014-02-15T07:31:57Z</time>
      </trkpt>
      <trkpt lat="42.43411" lon="2.94166">
        <ele>393.243</ele>
        <time>2014-02-15T07:31:58Z</time>
      </trkpt>
      <trkpt lat="42.43414" lon="2.94166">
        <ele>393.357</ele>
        <time>2014-02-15T07:31:59Z</time>
      </trkpt>
      <trkpt lat="42.43417" lon="2.94166">
        <ele>393.68</ele>
        <time>2014-02-15T07:32:00Z</time>
      </trkpt>
      <trkpt lat="42.43443" lon="2.94157">
        <ele>393.992</ele>
        <time>2014-02-15T07:32:08Z</time>
      </trkpt>
      <trkpt lat="42.43446" lon="2.94156">
        <ele>394.032</ele>
        <time>2014-02-15T07:32:09Z</time>
      </trkpt>
      <trkpt lat="42.43449" lon="2.94156">
        <ele>393.792</ele>
        <time>2014-02-15T07:32:10Z</time>
      </trkpt>
      <trkpt lat="42.43453" lon="2.94157">
        <ele>393.411</ele>
        <time>2014-02-15T07:32:11Z</time>
      </trkpt>
      <trkpt lat="42.43459" lon="2.94161">
        <ele>393.807</ele>
        <time>2014-02-15T07:32:13Z</time>
      </trkpt>
      <trkpt lat="42.43464" lon="2.94166">
        <ele>394.689</ele>
        <time>2014-02-15T07:32:15Z</time>
      </trkpt>
      <trkpt lat="42.43489" lon="2.94196">
        <ele>394.624</ele>
        <time>2014-02-15T07:32:25Z</time>
      </trkpt>
      <trkpt lat="42.4351" lon="2.94219">
        <ele>394.688</ele>
        <time>2014-02-15T07:32:34Z</time>
      </trkpt>
      <trkpt lat="42.43516" lon="2.94223">
        <ele>394.495</ele>
        <time>2014-02-15T07:32:36Z</time>
      </trkpt>
      <trkpt lat="42.43528" lon="2.94228">
        <ele>394.599</ele>
        <time>2014-02-15T07:32:40Z</time>
      </trkpt>
      <trkpt lat="42.4354" lon="2.9423">
        <ele>395.312</ele>
        <time>2014-02-15T07:32:44Z</time>
      </trkpt>
      <trkpt lat="42.43581" lon="2.94225">
        <ele>396.124</ele>
        <time>2014-02-15T07:32:58Z</time>
      </trkpt>
      <trkpt lat="42.43584" lon="2.94223">
        <ele>396.033</ele>
        <time>2014-02-15T07:32:59Z</time>
      </trkpt>
      <trkpt lat="42.43589" lon="2.9422">
        <ele>396.223</ele>
        <time>2014-02-15T07:33:01Z</time>
      </trkpt>
      <trkpt lat="42.43593" lon="2.94215">
        <ele>396.515</ele>
        <time>2014-02-15T07:33:03Z</time>
      </trkpt>
      <trkpt lat="42.43595" lon="2.94212">
        <ele>396.707</ele>
        <time>2014-02-15T07:33:04Z</time>
      </trkpt>
      <trkpt lat="42.436" lon="2.94199">
        <ele>396.919</ele>
        <time>2014-02-15T07:33:08Z</time>
      </trkpt>
      <trkpt lat="42.43614" lon="2.94151">
        <ele>397.274</ele>
        <time>2014-02-15T07:33:22Z</time>
      </trkpt>
      <trkpt lat="42.43616" lon="2.94148">
        <ele>397.338</ele>
        <time>2014-02-15T07:33:23Z</time>
      </trkpt>
      <trkpt lat="42.43626" lon="2.94127">
        <ele>397.965</ele>
        <time>2014-02-15T07:33:30Z</time>
      </trkpt>
      <trkpt lat="42.43633" lon="2.94117">
        <ele>398.599</ele>
        <time>2014-02-15T07:35:08Z</time>
      </trkpt>
      <trkpt lat="42.43633" lon="2.94117">
        <ele>398.772</ele>
        <time>2014-02-15T07:35:09Z</time>
      </trkpt>
      <trkpt lat="42.4366" lon="2.94064">
        <ele>398.184</ele>
        <time>2014-02-15T07:35:24Z</time>
      </trkpt>
      <trkpt lat="42.43661" lon="2.94061">
        <ele>397.893</ele>
        <time>2014-02-15T07:35:25Z</time>
      </trkpt>
      <trkpt lat="42.43662" lon="2.94058">
        <ele>397.565</ele>
        <time>2014-02-15T07:35:26Z</time>
      </trkpt>
      <trkpt lat="42.43663" lon="2.94056">
        <ele>397.421</ele>
        <time>2014-02-15T07:35:27Z</time>
      </trkpt>
      <trkpt lat="42.43666" lon="2.94038">
        <ele>396.907</ele>
        <time>2014-02-15T07:35:33Z</time>
      </trkpt>
      <trkpt lat="42.43682" lon="2.93992">
        <ele>395.085</ele>
        <time>2014-02-15T07:35:43Z</time>
      </trkpt>
      <trkpt lat="42.43685" lon="2.93988">
        <ele>395.25</ele>
        <time>2014-02-15T07:35:44Z</time>
      </trkpt>
      <trkpt lat="42.43689" lon="2.93985">
        <ele>395.374</ele>
        <time>2014-02-15T07:35:45Z</time>
      </trkpt>
      <trkpt lat="42.43693" lon="2.93983">
        <ele>395.441</ele>
        <time>2014-02-15T07:35:46Z</time>
      </trkpt>
      <trkpt lat="42.43697" lon="2.93983">
        <ele>395.195</ele>
        <time>2014-02-15T07:35:47Z</time>
      </trkpt>
      <trkpt lat="42.43742" lon="2.93994">
        <ele>395.768</ele>
        <time>2014-02-15T07:35:57Z</time>
      </trkpt>
      <trkpt lat="42.43747" lon="2.93994">
        <ele>395.85</ele>
        <time>2014-02-15T07:35:58Z</time>
      </trkpt>
      <trkpt lat="42.43756" lon="2.93992">
        <ele>395.628</ele>
        <time>2014-02-15T07:36:00Z</time>
      </trkpt>
      <trkpt lat="42.43782" lon="2.93973">
        <ele>394.789</ele>
        <time>2014-02-15T07:36:07Z</time>
      </trkpt>
      <trkpt lat="42.43803" lon="2.93946">
        <ele>394.417</ele>
        <time>2014-02-15T07:36:14Z</time>
      </trkpt>
      <trkpt lat="42.43817" lon="2.93918">
        <ele>394.307</ele>
        <time>2014-02-15T07:36:20Z</time>
      </trkpt>
      <trkpt lat="42.43821" lon="2.93902">
        <ele>394.668</ele>
        <time>2014-02-15T07:36:23Z</time>
      </trkpt>
      <trkpt lat="42.43826" lon="2.93885">
        <ele>395.163</ele>
        <time>2014-02-15T07:36:26Z</time>
      </trkpt>
      <trkpt lat="42.43828" lon="2.9388">
        <ele>395.297</ele>
        <time>2014-02-15T07:36:27Z</time>
      </trkpt>
      <trkpt lat="42.43831" lon="2.93876">
        <ele>395.354</ele>
        <time>2014-02-15T07:36:28Z</time>
      </trkpt>
      <trkpt lat="42.43834" lon="2.93872">
        <ele>395.138</ele>
        <time>2014-02-15T07:36:29Z</time>
      </trkpt>
      <trkpt lat="42.43864" lon="2.9386">
        <ele>394.941</ele>
        <time>2014-02-15T07:36:36Z</time>
      </trkpt>
      <trkpt lat="42.43869" lon="2.93858">
        <ele>394.873</ele>
        <time>2014-02-15T07:36:37Z</time>
      </trkpt>
      <trkpt lat="42.43886" lon="2.93838">
        <ele>394.163</ele>
        <time>2014-02-15T07:36:42Z</time>
      </trkpt>
      <trkpt lat="42.43895" lon="2.93819">
        <ele>394.844</ele>
        <time>2014-02-15T07:36:46Z</time>
      </trkpt>
      <trkpt lat="42.43899" lon="2.93809">
        <ele>394.818</ele>
        <time>2014-02-15T07:36:48Z</time>
      </trkpt>
      <trkpt lat="42.43904" lon="2.93757">
        <ele>394.607</ele>
        <time>2014-02-15T07:36:58Z</time>
      </trkpt>
      <trkpt lat="42.43907" lon="2.93746">
        <ele>394.152</ele>
        <time>2014-02-15T07:37:00Z</time>
      </trkpt>
      <trkpt lat="42.43909" lon="2.93741">
        <ele>394.047</ele>
        <time>2014-02-15T07:37:01Z</time>
      </trkpt>
      <trkpt lat="42.43917" lon="2.93728">
        <ele>394.211</ele>
        <time>2014-02-15T07:37:04Z</time>
      </trkpt>
      <trkpt lat="42.43936" lon="2.93707">
        <ele>394.188</ele>
        <time>2014-02-15T07:37:09Z</time>
      </trkpt>
      <trkpt lat="42.43973" lon="2.93643">
        <ele>392.892</ele>
        <time>2014-02-15T07:37:20Z</time>
      </trkpt>
      <trkpt lat="42.44038" lon="2.93586">
        <ele>392.365</ele>
        <time>2014-02-15T07:37:34Z</time>
      </trkpt>
      <trkpt lat="42.44042" lon="2.93584">
        <ele>392.557</ele>
        <time>2014-02-15T07:37:35Z</time>
      </trkpt>
      <trkpt lat="42.4405" lon="2.93582">
        <ele>392.331</ele>
        <time>2014-02-15T07:37:37Z</time>
      </trkpt>
      <trkpt lat="42.44054" lon="2.93581">
        <ele>392.261</ele>
        <time>2014-02-15T07:37:38Z</time>
      </trkpt>
      <trkpt lat="42.44069" lon="2.93581">
        <ele>393.307</ele>
        <time>2014-02-15T07:37:42Z</time>
      </trkpt>
      <trkpt lat="42.44073" lon="2.93581">
        <ele>393.507</ele>
        <time>2014-02-15T07:37:43Z</time>
      </trkpt>
      <trkpt lat="42.4408" lon="2.93581">
        <ele>393.529</ele>
        <time>2014-02-15T07:37:45Z</time>
      </trkpt>
      <trkpt lat="42.44086" lon="2.93581">
        <ele>393.294</ele>
        <time>2014-02-15T07:37:47Z</time>
      </trkpt>
      <trkpt lat="42.44103" lon="2.93574">
        <ele>394.398</ele>
        <time>2014-02-15T07:37:52Z</time>
      </trkpt>
      <trkpt lat="42.44134" lon="2.9355">
        <ele>395.425</ele>
        <time>2014-02-15T07:38:03Z</time>
      </trkpt>
      <trkpt lat="42.44142" lon="2.93545">
        <ele>396.229</ele>
        <time>2014-02-15T07:38:06Z</time>
      </trkpt>
      <trkpt lat="42.44146" lon="2.93541">
        <ele>396.532</ele>
        <time>2014-02-15T07:38:08Z</time>
      </trkpt>
      <trkpt lat="42.4415" lon="2.93536">
        <ele>396.774</ele>
        <time>2014-02-15T07:38:10Z</time>
      </trkpt>
      <trkpt lat="42.44156" lon="2.93524">
        <ele>396.542</ele>
        <time>2014-02-15T07:38:14Z</time>
      </trkpt>
      <trkpt lat="42.44164" lon="2.93507">
        <ele>397.222</ele>
        <time>2014-02-15T07:38:19Z</time>
      </trkpt>
      <trkpt lat="42.44166" lon="2.93504">
        <ele>397.014</ele>
        <time>2014-02-15T07:38:20Z</time>
      </trkpt>
      <trkpt lat="42.44169" lon="2.93502">
        <ele>396.907</ele>
        <time>2014-02-15T07:38:21Z</time>
      </trkpt>
      <trkpt lat="42.44172" lon="2.93501">
        <ele>396.84</ele>
        <time>2014-02-15T07:38:22Z</time>
      </trkpt>
      <trkpt lat="42.44175" lon="2.93501">
        <ele>396.765</ele>
        <time>2014-02-15T07:38:23Z</time>
      </trkpt>
      <trkpt lat="42.44178" lon="2.93502">
        <ele>396.329</ele>
        <time>2014-02-15T07:38:24Z</time>
      </trkpt>
      <trkpt lat="42.4418" lon="2.93504">
        <ele>396.186</ele>
        <time>2014-02-15T07:38:25Z</time>
      </trkpt>
      <trkpt lat="42.44181" lon="2.93506">
        <ele>395.95</ele>
        <time>2014-02-15T07:38:26Z</time>
      </trkpt>
      <trkpt lat="42.44184" lon="2.93512">
        <ele>396.613</ele>
        <time>2014-02-15T07:38:28Z</time>
      </trkpt>
      <trkpt lat="42.44191" lon="2.93538">
        <ele>397.145</ele>
        <time>2014-02-15T07:38:35Z</time>
      </trkpt>
      <trkpt lat="42.44191" lon="2.9355">
        <ele>397.847</ele>
        <time>2014-02-15T07:38:38Z</time>
      </trkpt>
      <trkpt lat="42.44191" lon="2.93554">
        <ele>398.029</ele>
        <time>2014-02-15T07:38:39Z</time>
      </trkpt>
      <trkpt lat="42.44181" lon="2.93586">
        <ele>398.921</ele>
        <time>2014-02-15T07:38:47Z</time>
      </trkpt>
      <trkpt lat="42.44178" lon="2.9361">
        <ele>398.507</ele>
        <time>2014-02-15T07:38:51Z</time>
      </trkpt>
      <trkpt lat="42.44178" lon="2.93616">
        <ele>397.98</ele>
        <time>2014-02-15T07:38:52Z</time>
      </trkpt>
      <trkpt lat="42.44179" lon="2.93622">
        <ele>397.545</ele>
        <time>2014-02-15T07:38:53Z</time>
      </trkpt>
      <trkpt lat="42.44181" lon="2.93627">
        <ele>397.249</ele>
        <time>2014-02-15T07:38:54Z</time>
      </trkpt>
      <trkpt lat="42.44184" lon="2.93633">
        <ele>397.066</ele>
        <time>2014-02-15T07:38:55Z</time>
      </trkpt>
      <trkpt lat="42.442" lon="2.93651">
        <ele>397.78</ele>
        <time>2014-02-15T07:38:59Z</time>
      </trkpt>
      <trkpt lat="42.4421" lon="2.93657">
        <ele>398.083</ele>
        <time>2014-02-15T07:39:01Z</time>
      </trkpt>
      <trkpt lat="42.44231" lon="2.93665">
        <ele>397.155</ele>
        <time>2014-02-15T07:39:05Z</time>
      </trkpt>
      <trkpt lat="42.44236" lon="2.93668">
        <ele>397.168</ele>
        <time>2014-02-15T07:39:06Z</time>
      </trkpt>
      <trkpt lat="42.4424" lon="2.93672">
        <ele>397.242</ele>
        <time>2014-02-15T07:39:07Z</time>
      </trkpt>
      <trkpt lat="42.44244" lon="2.93678">
        <ele>397.026</ele>
        <time>2014-02-15T07:39:08Z</time>
      </trkpt>
      <trkpt lat="42.44246" lon="2.93685">
        <ele>396.907</ele>
        <time>2014-02-15T07:39:09Z</time>
      </trkpt>
      <trkpt lat="42.44253" lon="2.93718">
        <ele>397.022</ele>
        <time>2014-02-15T07:39:14Z</time>
      </trkpt>
      <trkpt lat="42.44257" lon="2.93729">
        <ele>397.177</ele>
        <time>2014-02-15T07:39:16Z</time>
      </trkpt>
      <trkpt lat="42.4427" lon="2.93751">
        <ele>396.961</ele>
        <time>2014-02-15T07:39:20Z</time>
      </trkpt>
      <trkpt lat="42.44288" lon="2.93801">
        <ele>396.858</ele>
        <time>2014-02-15T07:39:28Z</time>
      </trkpt>
      <trkpt lat="42.44294" lon="2.93812">
        <ele>396.722</ele>
        <time>2014-02-15T07:39:30Z</time>
      </trkpt>
      <trkpt lat="42.44298" lon="2.93817">
        <ele>397.175</ele>
        <time>2014-02-15T07:39:31Z</time>
      </trkpt>
      <trkpt lat="42.44311" lon="2.9383">
        <ele>397.627</ele>
        <time>2014-02-15T07:39:34Z</time>
      </trkpt>
      <trkpt lat="42.44314" lon="2.93836">
        <ele>397.423</ele>
        <time>2014-02-15T07:39:35Z</time>
      </trkpt>
      <trkpt lat="42.44323" lon="2.93861">
        <ele>398.183</ele>
        <time>2014-02-15T07:39:39Z</time>
      </trkpt>
      <trkpt lat="42.44331" lon="2.93902">
        <ele>396.811</ele>
        <time>2014-02-15T07:39:45Z</time>
      </trkpt>
      <trkpt lat="42.44333" lon="2.93909">
        <ele>396.707</ele>
        <time>2014-02-15T07:39:46Z</time>
      </trkpt>
      <trkpt lat="42.44354" lon="2.93949">
        <ele>397.598</ele>
        <time>2014-02-15T07:39:53Z</time>
      </trkpt>
      <trkpt lat="42.44363" lon="2.93975">
        <ele>398.463</ele>
        <time>2014-02-15T07:39:57Z</time>
      </trkpt>
      <trkpt lat="42.44367" lon="2.9398">
        <ele>398.787</ele>
        <time>2014-02-15T07:39:58Z</time>
      </trkpt>
      <trkpt lat="42.44371" lon="2.93985">
        <ele>398.324</ele>
        <time>2014-02-15T07:39:59Z</time>
      </trkpt>
      <trkpt lat="42.44414" lon="2.94009">
        <ele>397.488</ele>
        <time>2014-02-15T07:40:08Z</time>
      </trkpt>
      <trkpt lat="42.44419" lon="2.9401">
        <ele>397.111</ele>
        <time>2014-02-15T07:40:09Z</time>
      </trkpt>
      <trkpt lat="42.44429" lon="2.9401">
        <ele>396.883</ele>
        <time>2014-02-15T07:40:11Z</time>
      </trkpt>
      <trkpt lat="42.44439" lon="2.94006">
        <ele>396.947</ele>
        <time>2014-02-15T07:40:13Z</time>
      </trkpt>
      <trkpt lat="42.44448" lon="2.94001">
        <ele>397.029</ele>
        <time>2014-02-15T07:40:15Z</time>
      </trkpt>
      <trkpt lat="42.44482" lon="2.93966">
        <ele>396.521</ele>
        <time>2014-02-15T07:40:24Z</time>
      </trkpt>
      <trkpt lat="42.44487" lon="2.93956">
        <ele>396.507</ele>
        <time>2014-02-15T07:40:26Z</time>
      </trkpt>
      <trkpt lat="42.44491" lon="2.93945">
        <ele>396.61</ele>
        <time>2014-02-15T07:40:28Z</time>
      </trkpt>
      <trkpt lat="42.44493" lon="2.93927">
        <ele>396.775</ele>
        <time>2014-02-15T07:40:31Z</time>
      </trkpt>
      <trkpt lat="42.44494" lon="2.93922">
        <ele>396.789</ele>
        <time>2014-02-15T07:40:32Z</time>
      </trkpt>
      <trkpt lat="42.44496" lon="2.93917">
        <ele>396.736</ele>
        <time>2014-02-15T07:40:33Z</time>
      </trkpt>
      <trkpt lat="42.445" lon="2.93914">
        <ele>397.07</ele>
        <time>2014-02-15T07:40:34Z</time>
      </trkpt>
      <trkpt lat="42.44504" lon="2.93913">
        <ele>397.273</ele>
        <time>2014-02-15T07:40:35Z</time>
      </trkpt>
      <trkpt lat="42.44512" lon="2.93915">
        <ele>397.425</ele>
        <time>2014-02-15T07:40:37Z</time>
      </trkpt>
      <trkpt lat="42.44533" lon="2.93929">
        <ele>396.878</ele>
        <time>2014-02-15T07:40:43Z</time>
      </trkpt>
      <trkpt lat="42.4457" lon="2.93945">
        <ele>398.833</ele>
        <time>2014-02-15T07:40:54Z</time>
      </trkpt>
      <trkpt lat="42.44574" lon="2.93946">
        <ele>399.026</ele>
        <time>2014-02-15T07:40:55Z</time>
      </trkpt>
      <trkpt lat="42.44582" lon="2.93946">
        <ele>398.607</ele>
        <time>2014-02-15T07:40:57Z</time>
      </trkpt>
      <trkpt lat="42.44595" lon="2.93948">
        <ele>397.493</ele>
        <time>2014-02-15T07:41:01Z</time>
      </trkpt>
      <trkpt lat="42.44607" lon="2.93954">
        <ele>397.358</ele>
        <time>2014-02-15T07:41:05Z</time>
      </trkpt>
      <trkpt lat="42.44695" lon="2.94004">
        <ele>398.852</ele>
        <time>2014-02-15T07:41:30Z</time>
      </trkpt>
      <trkpt lat="42.44702" lon="2.9401">
        <ele>398.799</ele>
        <time>2014-02-15T07:41:33Z</time>
      </trkpt>
      <trkpt lat="42.44708" lon="2.94013">
        <ele>398.863</ele>
        <time>2014-02-15T07:41:35Z</time>
      </trkpt>
      <trkpt lat="42.44712" lon="2.94017">
        <ele>399.126</ele>
        <time>2014-02-15T07:41:37Z</time>
      </trkpt>
      <trkpt lat="42.44728" lon="2.94028">
        <ele>399.758</ele>
        <time>2014-02-15T07:41:43Z</time>
      </trkpt>
      <trkpt lat="42.44758" lon="2.9406">
        <ele>400.768</ele>
        <time>2014-02-15T07:41:54Z</time>
      </trkpt>
      <trkpt lat="42.4476" lon="2.94063">
        <ele>400.742</ele>
        <time>2014-02-15T07:41:55Z</time>
      </trkpt>
      <trkpt lat="42.44761" lon="2.94066">
        <ele>400.826</ele>
        <time>2014-02-15T07:41:56Z</time>
      </trkpt>
      <trkpt lat="42.44773" lon="2.94087">
        <ele>400.107</ele>
        <time>2014-02-15T07:42:03Z</time>
      </trkpt>
      <trkpt lat="42.44775" lon="2.9409">
        <ele>400.052</ele>
        <time>2014-02-15T07:42:04Z</time>
      </trkpt>
      <trkpt lat="42.44787" lon="2.94099">
        <ele>399.757</ele>
        <time>2014-02-15T07:42:09Z</time>
      </trkpt>
      <trkpt lat="42.44788" lon="2.941">
        <ele>399.811</ele>
        <time>2014-02-15T07:42:10Z</time>
      </trkpt>
      <trkpt lat="42.44788" lon="2.941">
        <ele>399.998</ele>
        <time>2014-02-15T07:42:11Z</time>
      </trkpt>
      <trkpt lat="42.44788" lon="2.94101">
        <ele>400.022</ele>
        <time>2014-02-15T07:42:12Z</time>
      </trkpt>
      <trkpt lat="42.44788" lon="2.94101">
        <ele>400.355</ele>
        <time>2014-02-15T07:42:13Z</time>
      </trkpt>
      <trkpt lat="42.44789" lon="2.94102">
        <ele>400.527</ele>
        <time>2014-02-15T07:42:14Z</time>
      </trkpt>
      <trkpt lat="42.44789" lon="2.94102">
        <ele>400.751</ele>
        <time>2014-02-15T07:42:15Z</time>
      </trkpt>
      <trkpt lat="42.44789" lon="2.94102">
        <ele>400.801</ele>
        <time>2014-02-15T07:42:16Z</time>
      </trkpt>
      <trkpt lat="42.44789" lon="2.94102">
        <ele>400.811</ele>
        <time>2014-02-15T07:42:17Z</time>
      </trkpt>
      <trkpt lat="42.44789" lon="2.94102">
        <ele>400.907</ele>
        <time>2014-02-15T07:42:18Z</time>
      </trkpt>
      <trkpt lat="42.4479" lon="2.94103">
        <ele>400.951</ele>
        <time>2014-02-15T07:42:19Z</time>
      </trkpt>
      <trkpt lat="42.4479" lon="2.94103">
        <ele>400.466</ele>
        <time>2014-02-15T07:42:20Z</time>
      </trkpt>
      <trkpt lat="42.4479" lon="2.94103">
        <ele>400.11</ele>
        <time>2014-02-15T07:42:21Z</time>
      </trkpt>
      <trkpt lat="42.4479" lon="2.94103">
        <ele>399.887</ele>
        <time>2014-02-15T07:42:22Z</time>
      </trkpt>
      <trkpt lat="42.4479" lon="2.94103">
        <ele>399.631</ele>
        <time>2014-02-15T07:42:23Z</time>
      </trkpt>
      <trkpt lat="42.4479" lon="2.94103">
        <ele>399.534</ele>
        <time>2014-02-15T07:42:24Z</time>
      </trkpt>
      <trkpt lat="42.4479" lon="2.94104">
        <ele>399.456</ele>
        <time>2014-02-15T07:42:25Z</time>
      </trkpt>
      <trkpt lat="42.44791" lon="2.94104">
        <ele>399.949</ele>
        <time>2014-02-15T07:42:27Z</time>
      </trkpt>
      <trkpt lat="42.44791" lon="2.94104">
        <ele>400.102</ele>
        <time>2014-02-15T07:42:28Z</time>
      </trkpt>
      <trkpt lat="42.44791" lon="2.94104">
        <ele>400.122</ele>
        <time>2014-02-15T07:42:29Z</time>
      </trkpt>
      <trkpt lat="42.44791" lon="2.94104">
        <ele>400.107</ele>
        <time>2014-02-15T07:42:30Z</time>
      </trkpt>
      <trkpt lat="42.44797" lon="2.94113">
        <ele>400.06</ele>
        <time>2014-02-15T07:42:35Z</time>
      </trkpt>
      <trkpt lat="42.44814" lon="2.94138">
        <ele>400.545</ele>
        <time>2014-02-15T07:43:04Z</time>
      </trkpt>
      <trkpt lat="42.44818" lon="2.94142">
        <ele>400.259</ele>
        <time>2014-02-15T07:43:06Z</time>
      </trkpt>
      <trkpt lat="42.44819" lon="2.94144">
        <ele>400.196</ele>
        <time>2014-02-15T07:43:07Z</time>
      </trkpt>
      <trkpt lat="42.44823" lon="2.94148">
        <ele>399.52</ele>
        <time>2014-02-15T07:43:09Z</time>
      </trkpt>
      <trkpt lat="42.44824" lon="2.94149">
        <ele>399.313</ele>
        <time>2014-02-15T07:43:10Z</time>
      </trkpt>
      <trkpt lat="42.4488" lon="2.94223">
        <ele>406.795</ele>
        <time>2014-02-15T07:44:52Z</time>
      </trkpt>
      <trkpt lat="42.44882" lon="2.94223">
        <ele>407.176</ele>
        <time>2014-02-15T07:44:53Z</time>
      </trkpt>
      <trkpt lat="42.44889" lon="2.94219">
        <ele>408.29</ele>
        <time>2014-02-15T07:44:59Z</time>
      </trkpt>
      <trkpt lat="42.4489" lon="2.94218">
        <ele>408.619</ele>
        <time>2014-02-15T07:45:00Z</time>
      </trkpt>
      <trkpt lat="42.44891" lon="2.94217">
        <ele>408.807</ele>
        <time>2014-02-15T07:45:01Z</time>
      </trkpt>
      <trkpt lat="42.44895" lon="2.94215">
        <ele>410.013</ele>
        <time>2014-02-15T07:45:04Z</time>
      </trkpt>
      <trkpt lat="42.44896" lon="2.94214">
        <ele>410.688</ele>
        <time>2014-02-15T07:45:06Z</time>
      </trkpt>
      <trkpt lat="42.44897" lon="2.94213">
        <ele>410.892</ele>
        <time>2014-02-15T07:45:07Z</time>
      </trkpt>
      <trkpt lat="42.44898" lon="2.94212">
        <ele>411.049</ele>
        <time>2014-02-15T07:45:08Z</time>
      </trkpt>
      <trkpt lat="42.44899" lon="2.94212">
        <ele>410.983</ele>
        <time>2014-02-15T07:45:09Z</time>
      </trkpt>
      <trkpt lat="42.44899" lon="2.94211">
        <ele>410.886</ele>
        <time>2014-02-15T07:45:10Z</time>
      </trkpt>
      <trkpt lat="42.449" lon="2.9421">
        <ele>410.718</ele>
        <time>2014-02-15T07:45:11Z</time>
      </trkpt>
      <trkpt lat="42.44905" lon="2.94208">
        <ele>411.014</ele>
        <time>2014-02-15T07:45:15Z</time>
      </trkpt>
      <trkpt lat="42.44905" lon="2.94208">
        <ele>411.254</ele>
        <time>2014-02-15T07:45:16Z</time>
      </trkpt>
      <trkpt lat="42.44906" lon="2.94208">
        <ele>411.309</ele>
        <time>2014-02-15T07:45:17Z</time>
      </trkpt>
      <trkpt lat="42.44907" lon="2.94207">
        <ele>411.307</ele>
        <time>2014-02-15T07:45:18Z</time>
      </trkpt>
      <trkpt lat="42.44908" lon="2.94207">
        <ele>411.427</ele>
        <time>2014-02-15T07:45:19Z</time>
      </trkpt>
      <trkpt lat="42.44911" lon="2.94206">
        <ele>411.652</ele>
        <time>2014-02-15T07:45:21Z</time>
      </trkpt>
      <trkpt lat="42.44912" lon="2.94205">
        <ele>411.886</ele>
        <time>2014-02-15T07:45:22Z</time>
      </trkpt>
      <trkpt lat="42.4492" lon="2.94203">
        <ele>413.033</ele>
        <time>2014-02-15T07:45:28Z</time>
      </trkpt>
      <trkpt lat="42.44921" lon="2.94203">
        <ele>413.457</ele>
        <time>2014-02-15T07:45:29Z</time>
      </trkpt>
      <trkpt lat="42.44923" lon="2.94202">
        <ele>413.42</ele>
        <time>2014-02-15T07:45:31Z</time>
      </trkpt>
      <trkpt lat="42.44928" lon="2.94201">
        <ele>413.392</ele>
        <time>2014-02-15T07:45:35Z</time>
      </trkpt>
      <trkpt lat="42.44929" lon="2.942">
        <ele>413.475</ele>
        <time>2014-02-15T07:45:36Z</time>
      </trkpt>
      <trkpt lat="42.4493" lon="2.94199">
        <ele>413.528</ele>
        <time>2014-02-15T07:45:37Z</time>
      </trkpt>
      <trkpt lat="42.44933" lon="2.94199">
        <ele>413.82</ele>
        <time>2014-02-15T07:45:40Z</time>
      </trkpt>
      <trkpt lat="42.44934" lon="2.94198">
        <ele>414.307</ele>
        <time>2014-02-15T07:45:41Z</time>
      </trkpt>
      <trkpt lat="42.44935" lon="2.94198">
        <ele>414.733</ele>
        <time>2014-02-15T07:45:42Z</time>
      </trkpt>
      <trkpt lat="42.44945" lon="2.94193">
        <ele>416.058</ele>
        <time>2014-02-15T07:45:50Z</time>
      </trkpt>
      <trkpt lat="42.44956" lon="2.94189">
        <ele>417.132</ele>
        <time>2014-02-15T07:45:59Z</time>
      </trkpt>
      <trkpt lat="42.4496" lon="2.94186">
        <ele>417.689</ele>
        <time>2014-02-15T07:46:03Z</time>
      </trkpt>
      <trkpt lat="42.44962" lon="2.94184">
        <ele>417.913</ele>
        <time>2014-02-15T07:46:05Z</time>
      </trkpt>
      <trkpt lat="42.44963" lon="2.94183">
        <ele>418.186</ele>
        <time>2014-02-15T07:46:06Z</time>
      </trkpt>
      <trkpt lat="42.44965" lon="2.94182">
        <ele>418.428</ele>
        <time>2014-02-15T07:46:08Z</time>
      </trkpt>
      <trkpt lat="42.44967" lon="2.94181">
        <ele>418.357</ele>
        <time>2014-02-15T07:46:10Z</time>
      </trkpt>
      <trkpt lat="42.44968" lon="2.94181">
        <ele>418.1</ele>
        <time>2014-02-15T07:46:11Z</time>
      </trkpt>
      <trkpt lat="42.44969" lon="2.94181">
        <ele>417.92</ele>
        <time>2014-02-15T07:46:12Z</time>
      </trkpt>
      <trkpt lat="42.44971" lon="2.94181">
        <ele>418.407</ele>
        <time>2014-02-15T07:46:13Z</time>
      </trkpt>
      <trkpt lat="42.44972" lon="2.94182">
        <ele>418.821</ele>
        <time>2014-02-15T07:46:14Z</time>
      </trkpt>
      <trkpt lat="42.44973" lon="2.94183">
        <ele>419.136</ele>
        <time>2014-02-15T07:46:15Z</time>
      </trkpt>
      <trkpt lat="42.44973" lon="2.94184">
        <ele>419.32</ele>
        <time>2014-02-15T07:46:16Z</time>
      </trkpt>
      <trkpt lat="42.44974" lon="2.94185">
        <ele>419.577</ele>
        <time>2014-02-15T07:46:17Z</time>
      </trkpt>
      <trkpt lat="42.44974" lon="2.94188">
        <ele>419.741</ele>
        <time>2014-02-15T07:46:19Z</time>
      </trkpt>
      <trkpt lat="42.44974" lon="2.94189">
        <ele>419.834</ele>
        <time>2014-02-15T07:46:20Z</time>
      </trkpt>
      <trkpt lat="42.44974" lon="2.9419">
        <ele>419.976</ele>
        <time>2014-02-15T07:46:21Z</time>
      </trkpt>
      <trkpt lat="42.44974" lon="2.94191">
        <ele>420.554</ele>
        <time>2014-02-15T07:46:22Z</time>
      </trkpt>
      <trkpt lat="42.44973" lon="2.94192">
        <ele>421.056</ele>
        <time>2014-02-15T07:46:23Z</time>
      </trkpt>
      <trkpt lat="42.44973" lon="2.94192">
        <ele>421.311</ele>
        <time>2014-02-15T07:46:24Z</time>
      </trkpt>
      <trkpt lat="42.4497" lon="2.94194">
        <ele>420.607</ele>
        <time>2014-02-15T07:46:28Z</time>
      </trkpt>
      <trkpt lat="42.44968" lon="2.94195">
        <ele>420.351</ele>
        <time>2014-02-15T07:46:30Z</time>
      </trkpt>
      <trkpt lat="42.44967" lon="2.94196">
        <ele>420.296</ele>
        <time>2014-02-15T07:46:31Z</time>
      </trkpt>
      <trkpt lat="42.44965" lon="2.94197">
        <ele>420.67</ele>
        <time>2014-02-15T07:46:33Z</time>
      </trkpt>
      <trkpt lat="42.44963" lon="2.942">
        <ele>421.377</ele>
        <time>2014-02-15T07:46:36Z</time>
      </trkpt>
      <trkpt lat="42.44962" lon="2.942">
        <ele>421.521</ele>
        <time>2014-02-15T07:46:37Z</time>
      </trkpt>
      <trkpt lat="42.44957" lon="2.94204">
        <ele>421.844</ele>
        <time>2014-02-15T07:46:42Z</time>
      </trkpt>
      <trkpt lat="42.44953" lon="2.94209">
        <ele>422.076</ele>
        <time>2014-02-15T07:46:46Z</time>
      </trkpt>
      <trkpt lat="42.44952" lon="2.94209">
        <ele>422.259</ele>
        <time>2014-02-15T07:46:47Z</time>
      </trkpt>
      <trkpt lat="42.44951" lon="2.94211">
        <ele>422.603</ele>
        <time>2014-02-15T07:46:49Z</time>
      </trkpt>
      <trkpt lat="42.4495" lon="2.94212">
        <ele>422.723</ele>
        <time>2014-02-15T07:46:50Z</time>
      </trkpt>
      <trkpt lat="42.44947" lon="2.94216">
        <ele>422.607</ele>
        <time>2014-02-15T07:46:53Z</time>
      </trkpt>
      <trkpt lat="42.44947" lon="2.94217">
        <ele>422.841</ele>
        <time>2014-02-15T07:46:54Z</time>
      </trkpt>
      <trkpt lat="42.44946" lon="2.94219">
        <ele>423.026</ele>
        <time>2014-02-15T07:46:55Z</time>
      </trkpt>
      <trkpt lat="42.44945" lon="2.94222">
        <ele>423.39</ele>
        <time>2014-02-15T07:46:57Z</time>
      </trkpt>
      <trkpt lat="42.44944" lon="2.94229">
        <ele>423.947</ele>
        <time>2014-02-15T07:47:01Z</time>
      </trkpt>
      <trkpt lat="42.44945" lon="2.94237">
        <ele>424.371</ele>
        <time>2014-02-15T07:47:06Z</time>
      </trkpt>
      <trkpt lat="42.44945" lon="2.94239">
        <ele>424.614</ele>
        <time>2014-02-15T07:47:07Z</time>
      </trkpt>
      <trkpt lat="42.44946" lon="2.94241">
        <ele>424.816</ele>
        <time>2014-02-15T07:47:08Z</time>
      </trkpt>
      <trkpt lat="42.44947" lon="2.94242">
        <ele>425.083</ele>
        <time>2014-02-15T07:47:09Z</time>
      </trkpt>
      <trkpt lat="42.4495" lon="2.94245">
        <ele>425.125</ele>
        <time>2014-02-15T07:47:11Z</time>
      </trkpt>
      <trkpt lat="42.44953" lon="2.94245">
        <ele>425.217</ele>
        <time>2014-02-15T07:47:13Z</time>
      </trkpt>
      <trkpt lat="42.44954" lon="2.94245">
        <ele>425.307</ele>
        <time>2014-02-15T07:47:14Z</time>
      </trkpt>
      <trkpt lat="42.44959" lon="2.94244">
        <ele>425.584</ele>
        <time>2014-02-15T07:47:17Z</time>
      </trkpt>
      <trkpt lat="42.44961" lon="2.94241">
        <ele>425.879</ele>
        <time>2014-02-15T07:47:19Z</time>
      </trkpt>
      <trkpt lat="42.44962" lon="2.94239">
        <ele>426.433</ele>
        <time>2014-02-15T07:47:20Z</time>
      </trkpt>
      <trkpt lat="42.44963" lon="2.94235">
        <ele>427.26</ele>
        <time>2014-02-15T07:47:22Z</time>
      </trkpt>
      <trkpt lat="42.44964" lon="2.94233">
        <ele>427.314</ele>
        <time>2014-02-15T07:47:23Z</time>
      </trkpt>
      <trkpt lat="42.44968" lon="2.9423">
        <ele>427.977</ele>
        <time>2014-02-15T07:47:26Z</time>
      </trkpt>
      <trkpt lat="42.44972" lon="2.94229">
        <ele>428.239</ele>
        <time>2014-02-15T07:47:30Z</time>
      </trkpt>
      <trkpt lat="42.44973" lon="2.94229">
        <ele>428.294</ele>
        <time>2014-02-15T07:47:31Z</time>
      </trkpt>
      <trkpt lat="42.44976" lon="2.9423">
        <ele>428.757</ele>
        <time>2014-02-15T07:47:34Z</time>
      </trkpt>
      <trkpt lat="42.44977" lon="2.9423">
        <ele>428.822</ele>
        <time>2014-02-15T07:47:35Z</time>
      </trkpt>
      <trkpt lat="42.44978" lon="2.94231">
        <ele>429.207</ele>
        <time>2014-02-15T07:47:36Z</time>
      </trkpt>
      <trkpt lat="42.44979" lon="2.94234">
        <ele>429.745</ele>
        <time>2014-02-15T07:47:38Z</time>
      </trkpt>
      <trkpt lat="42.44982" lon="2.94241">
        <ele>430.02</ele>
        <time>2014-02-15T07:47:43Z</time>
      </trkpt>
      <trkpt lat="42.44984" lon="2.94243">
        <ele>430.594</ele>
        <time>2014-02-15T07:47:45Z</time>
      </trkpt>
      <trkpt lat="42.44986" lon="2.94248">
        <ele>431.141</ele>
        <time>2014-02-15T07:47:48Z</time>
      </trkpt>
      <trkpt lat="42.44986" lon="2.94249">
        <ele>431.185</ele>
        <time>2014-02-15T07:47:49Z</time>
      </trkpt>
      <trkpt lat="42.44986" lon="2.9425">
        <ele>431.298</ele>
        <time>2014-02-15T07:47:50Z</time>
      </trkpt>
      <trkpt lat="42.44987" lon="2.94251">
        <ele>431.28</ele>
        <time>2014-02-15T07:47:51Z</time>
      </trkpt>
      <trkpt lat="42.4499" lon="2.94254">
        <ele>431.785</ele>
        <time>2014-02-15T07:47:54Z</time>
      </trkpt>
      <trkpt lat="42.44992" lon="2.94254">
        <ele>432.189</ele>
        <time>2014-02-15T07:47:56Z</time>
      </trkpt>
      <trkpt lat="42.44993" lon="2.94255">
        <ele>432.317</ele>
        <time>2014-02-15T07:47:57Z</time>
      </trkpt>
      <trkpt lat="42.44996" lon="2.94254">
        <ele>431.807</ele>
        <time>2014-02-15T07:48:00Z</time>
      </trkpt>
      <trkpt lat="42.44998" lon="2.94252">
        <ele>433.014</ele>
        <time>2014-02-15T07:48:02Z</time>
      </trkpt>
      <trkpt lat="42.44999" lon="2.94251">
        <ele>433.489</ele>
        <time>2014-02-15T07:48:03Z</time>
      </trkpt>
      <trkpt lat="42.45" lon="2.94251">
        <ele>433.423</ele>
        <time>2014-02-15T07:48:04Z</time>
      </trkpt>
      <trkpt lat="42.45001" lon="2.94248">
        <ele>433.59</ele>
        <time>2014-02-15T07:48:06Z</time>
      </trkpt>
      <trkpt lat="42.45003" lon="2.94246">
        <ele>433.614</ele>
        <time>2014-02-15T07:48:08Z</time>
      </trkpt>
      <trkpt lat="42.45003" lon="2.94243">
        <ele>433.667</ele>
        <time>2014-02-15T07:48:10Z</time>
      </trkpt>
      <trkpt lat="42.45004" lon="2.94241">
        <ele>434.419</ele>
        <time>2014-02-15T07:48:11Z</time>
      </trkpt>
      <trkpt lat="42.45004" lon="2.9424">
        <ele>435.096</ele>
        <time>2014-02-15T07:48:12Z</time>
      </trkpt>
      <trkpt lat="42.45004" lon="2.94239">
        <ele>435.431</ele>
        <time>2014-02-15T07:48:13Z</time>
      </trkpt>
      <trkpt lat="42.45005" lon="2.94237">
        <ele>435.424</ele>
        <time>2014-02-15T07:48:14Z</time>
      </trkpt>
      <trkpt lat="42.45005" lon="2.94236">
        <ele>435.407</ele>
        <time>2014-02-15T07:48:15Z</time>
      </trkpt>
      <trkpt lat="42.45007" lon="2.94233">
        <ele>436.365</ele>
        <time>2014-02-15T07:48:18Z</time>
      </trkpt>
      <trkpt lat="42.45009" lon="2.94232">
        <ele>436.89</ele>
        <time>2014-02-15T07:48:20Z</time>
      </trkpt>
      <trkpt lat="42.45011" lon="2.94231">
        <ele>436.224</ele>
        <time>2014-02-15T07:48:22Z</time>
      </trkpt>
      <trkpt lat="42.45012" lon="2.9423">
        <ele>436.041</ele>
        <time>2014-02-15T07:48:23Z</time>
      </trkpt>
      <trkpt lat="42.45013" lon="2.9423">
        <ele>436.495</ele>
        <time>2014-02-15T07:48:24Z</time>
      </trkpt>
      <trkpt lat="42.45014" lon="2.94229">
        <ele>436.778</ele>
        <time>2014-02-15T07:48:25Z</time>
      </trkpt>
      <trkpt lat="42.45015" lon="2.9423">
        <ele>436.98</ele>
        <time>2014-02-15T07:48:26Z</time>
      </trkpt>
      <trkpt lat="42.45017" lon="2.9423">
        <ele>436.293</ele>
        <time>2014-02-15T07:48:28Z</time>
      </trkpt>
      <trkpt lat="42.45019" lon="2.94232">
        <ele>436.165</ele>
        <time>2014-02-15T07:48:31Z</time>
      </trkpt>
      <trkpt lat="42.4502" lon="2.94233">
        <ele>436.121</ele>
        <time>2014-02-15T07:48:32Z</time>
      </trkpt>
      <trkpt lat="42.45023" lon="2.94236">
        <ele>437.507</ele>
        <time>2014-02-15T07:48:36Z</time>
      </trkpt>
      <trkpt lat="42.45024" lon="2.94237">
        <ele>437.775</ele>
        <time>2014-02-15T07:48:37Z</time>
      </trkpt>
      <trkpt lat="42.45024" lon="2.94239">
        <ele>437.95</ele>
        <time>2014-02-15T07:48:38Z</time>
      </trkpt>
      <trkpt lat="42.45029" lon="2.94243">
        <ele>438.714</ele>
        <time>2014-02-15T07:48:43Z</time>
      </trkpt>
      <trkpt lat="42.4503" lon="2.94244">
        <ele>439.021</ele>
        <time>2014-02-15T07:48:44Z</time>
      </trkpt>
      <trkpt lat="42.4503" lon="2.94245">
        <ele>439.315</ele>
        <time>2014-02-15T07:48:45Z</time>
      </trkpt>
      <trkpt lat="42.45034" lon="2.94249">
        <ele>439.758</ele>
        <time>2014-02-15T07:48:49Z</time>
      </trkpt>
      <trkpt lat="42.45036" lon="2.94251">
        <ele>439.68</ele>
        <time>2014-02-15T07:48:52Z</time>
      </trkpt>
      <trkpt lat="42.45038" lon="2.94252">
        <ele>439.548</ele>
        <time>2014-02-15T07:48:53Z</time>
      </trkpt>
      <trkpt lat="42.4504" lon="2.94254">
        <ele>439.561</ele>
        <time>2014-02-15T07:48:56Z</time>
      </trkpt>
      <trkpt lat="42.45044" lon="2.94257">
        <ele>440.317</ele>
        <time>2014-02-15T07:49:00Z</time>
      </trkpt>
      <trkpt lat="42.45045" lon="2.94257">
        <ele>440.607</ele>
        <time>2014-02-15T07:49:02Z</time>
      </trkpt>
      <trkpt lat="42.45047" lon="2.94258">
        <ele>440.72</ele>
        <time>2014-02-15T07:49:04Z</time>
      </trkpt>
      <trkpt lat="42.45048" lon="2.94258">
        <ele>441.265</ele>
        <time>2014-02-15T07:49:05Z</time>
      </trkpt>
      <trkpt lat="42.4505" lon="2.94259">
        <ele>441.929</ele>
        <time>2014-02-15T07:49:07Z</time>
      </trkpt>
      <trkpt lat="42.45051" lon="2.94261">
        <ele>441.876</ele>
        <time>2014-02-15T07:49:09Z</time>
      </trkpt>
      <trkpt lat="42.45061" lon="2.94269">
        <ele>441.96</ele>
        <time>2014-02-15T07:49:18Z</time>
      </trkpt>
      <trkpt lat="42.45062" lon="2.9427">
        <ele>441.713</ele>
        <time>2014-02-15T07:49:19Z</time>
      </trkpt>
      <trkpt lat="42.45065" lon="2.94273">
        <ele>442.725</ele>
        <time>2014-02-15T07:49:22Z</time>
      </trkpt>
      <trkpt lat="42.45066" lon="2.94274">
        <ele>443.132</ele>
        <time>2014-02-15T07:49:23Z</time>
      </trkpt>
      <trkpt lat="42.45067" lon="2.94274">
        <ele>443.192</ele>
        <time>2014-02-15T07:49:24Z</time>
      </trkpt>
      <trkpt lat="42.4507" lon="2.94277">
        <ele>443.011</ele>
        <time>2014-02-15T07:49:27Z</time>
      </trkpt>
      <trkpt lat="42.45073" lon="2.94279">
        <ele>443.107</ele>
        <time>2014-02-15T07:49:29Z</time>
      </trkpt>
      <trkpt lat="42.45074" lon="2.9428">
        <ele>443.189</ele>
        <time>2014-02-15T07:49:30Z</time>
      </trkpt>
      <trkpt lat="42.45078" lon="2.94282">
        <ele>444.014</ele>
        <time>2014-02-15T07:49:34Z</time>
      </trkpt>
      <trkpt lat="42.4508" lon="2.94284">
        <ele>444.478</ele>
        <time>2014-02-15T07:49:36Z</time>
      </trkpt>
      <trkpt lat="42.45081" lon="2.94285">
        <ele>444.745</ele>
        <time>2014-02-15T07:49:37Z</time>
      </trkpt>
      <trkpt lat="42.45085" lon="2.94287">
        <ele>445.169</ele>
        <time>2014-02-15T07:49:40Z</time>
      </trkpt>
      <trkpt lat="42.45091" lon="2.94288">
        <ele>445.992</ele>
        <time>2014-02-15T07:49:45Z</time>
      </trkpt>
      <trkpt lat="42.45093" lon="2.94288">
        <ele>446.284</ele>
        <time>2014-02-15T07:49:46Z</time>
      </trkpt>
      <trkpt lat="42.45096" lon="2.94287">
        <ele>445.711</ele>
        <time>2014-02-15T07:49:48Z</time>
      </trkpt>
      <trkpt lat="42.45097" lon="2.94286">
        <ele>445.521</ele>
        <time>2014-02-15T07:49:49Z</time>
      </trkpt>
      <trkpt lat="42.45099" lon="2.94282">
        <ele>446.003</ele>
        <time>2014-02-15T07:49:52Z</time>
      </trkpt>
      <trkpt lat="42.451" lon="2.94279">
        <ele>446.807</ele>
        <time>2014-02-15T07:49:54Z</time>
      </trkpt>
      <trkpt lat="42.451" lon="2.94278">
        <ele>447.157</ele>
        <time>2014-02-15T07:49:55Z</time>
      </trkpt>
      <trkpt lat="42.45099" lon="2.94277">
        <ele>447.172</ele>
        <time>2014-02-15T07:49:56Z</time>
      </trkpt>
      <trkpt lat="42.45099" lon="2.94275">
        <ele>447.256</ele>
        <time>2014-02-15T07:49:57Z</time>
      </trkpt>
      <trkpt lat="42.45099" lon="2.94274">
        <ele>447.223</ele>
        <time>2014-02-15T07:49:58Z</time>
      </trkpt>
      <trkpt lat="42.45099" lon="2.94273">
        <ele>447.367</ele>
        <time>2014-02-15T07:49:59Z</time>
      </trkpt>
      <trkpt lat="42.45098" lon="2.94272">
        <ele>447.31</ele>
        <time>2014-02-15T07:50:00Z</time>
      </trkpt>
      <trkpt lat="42.45098" lon="2.94271">
        <ele>447.342</ele>
        <time>2014-02-15T07:50:01Z</time>
      </trkpt>
      <trkpt lat="42.45097" lon="2.94269">
        <ele>447.141</ele>
        <time>2014-02-15T07:50:04Z</time>
      </trkpt>
      <trkpt lat="42.45096" lon="2.94268">
        <ele>447.081</ele>
        <time>2014-02-15T07:50:05Z</time>
      </trkpt>
      <trkpt lat="42.45095" lon="2.94266">
        <ele>448.109</ele>
        <time>2014-02-15T07:50:07Z</time>
      </trkpt>
      <trkpt lat="42.45094" lon="2.94261">
        <ele>448.307</ele>
        <time>2014-02-15T07:50:10Z</time>
      </trkpt>
      <trkpt lat="42.45094" lon="2.9426">
        <ele>448.28</ele>
        <time>2014-02-15T07:50:11Z</time>
      </trkpt>
      <trkpt lat="42.45095" lon="2.94258">
        <ele>448.985</ele>
        <time>2014-02-15T07:50:12Z</time>
      </trkpt>
      <trkpt lat="42.45095" lon="2.94257">
        <ele>449.589</ele>
        <time>2014-02-15T07:50:13Z</time>
      </trkpt>
      <trkpt lat="42.45095" lon="2.94256">
        <ele>449.996</ele>
        <time>2014-02-15T07:50:14Z</time>
      </trkpt>
      <trkpt lat="42.45097" lon="2.94254">
        <ele>449.33</ele>
        <time>2014-02-15T07:50:16Z</time>
      </trkpt>
      <trkpt lat="42.45097" lon="2.94253">
        <ele>449.263</ele>
        <time>2014-02-15T07:50:17Z</time>
      </trkpt>
      <trkpt lat="42.45098" lon="2.94253">
        <ele>449.135</ele>
        <time>2014-02-15T07:50:18Z</time>
      </trkpt>
      <trkpt lat="42.45099" lon="2.94253">
        <ele>449.112</ele>
        <time>2014-02-15T07:50:19Z</time>
      </trkpt>
      <trkpt lat="42.451" lon="2.94254">
        <ele>449.132</ele>
        <time>2014-02-15T07:50:20Z</time>
      </trkpt>
      <trkpt lat="42.4511" lon="2.94264">
        <ele>451.305</ele>
        <time>2014-02-15T07:50:32Z</time>
      </trkpt>
      <trkpt lat="42.45111" lon="2.94265">
        <ele>451.707</ele>
        <time>2014-02-15T07:50:33Z</time>
      </trkpt>
      <trkpt lat="42.45112" lon="2.94266">
        <ele>451.727</ele>
        <time>2014-02-15T07:50:34Z</time>
      </trkpt>
      <trkpt lat="42.45116" lon="2.94269">
        <ele>452.312</ele>
        <time>2014-02-15T07:50:38Z</time>
      </trkpt>
      <trkpt lat="42.45117" lon="2.94269">
        <ele>452.786</ele>
        <time>2014-02-15T07:50:39Z</time>
      </trkpt>
      <trkpt lat="42.45118" lon="2.9427">
        <ele>453.043</ele>
        <time>2014-02-15T07:50:40Z</time>
      </trkpt>
      <trkpt lat="42.45119" lon="2.9427">
        <ele>452.887</ele>
        <time>2014-02-15T07:50:41Z</time>
      </trkpt>
      <trkpt lat="42.4512" lon="2.9427">
        <ele>452.67</ele>
        <time>2014-02-15T07:50:42Z</time>
      </trkpt>
      <trkpt lat="42.45121" lon="2.94269">
        <ele>452.562</ele>
        <time>2014-02-15T07:50:43Z</time>
      </trkpt>
      <trkpt lat="42.45122" lon="2.94268">
        <ele>452.711</ele>
        <time>2014-02-15T07:50:44Z</time>
      </trkpt>
      <trkpt lat="42.45123" lon="2.94267">
        <ele>452.721</ele>
        <time>2014-02-15T07:50:45Z</time>
      </trkpt>
      <trkpt lat="42.45124" lon="2.94266">
        <ele>452.803</ele>
        <time>2014-02-15T07:50:46Z</time>
      </trkpt>
      <trkpt lat="42.45124" lon="2.94264">
        <ele>453.207</ele>
        <time>2014-02-15T07:50:47Z</time>
      </trkpt>
      <trkpt lat="42.45123" lon="2.94262">
        <ele>453.547</ele>
        <time>2014-02-15T07:50:48Z</time>
      </trkpt>
      <trkpt lat="42.45121" lon="2.94258">
        <ele>454.222</ele>
        <time>2014-02-15T07:50:51Z</time>
      </trkpt>
      <trkpt lat="42.45112" lon="2.94248">
        <ele>455.416</ele>
        <time>2014-02-15T07:51:01Z</time>
      </trkpt>
      <trkpt lat="42.45111" lon="2.94247">
        <ele>455.563</ele>
        <time>2014-02-15T07:51:02Z</time>
      </trkpt>
      <trkpt lat="42.4511" lon="2.94246">
        <ele>455.397</ele>
        <time>2014-02-15T07:51:03Z</time>
      </trkpt>
      <trkpt lat="42.45109" lon="2.94244">
        <ele>455.14</ele>
        <time>2014-02-15T07:51:05Z</time>
      </trkpt>
      <trkpt lat="42.45109" lon="2.94242">
        <ele>455.412</ele>
        <time>2014-02-15T07:51:06Z</time>
      </trkpt>
      <trkpt lat="42.45109" lon="2.94237">
        <ele>456.056</ele>
        <time>2014-02-15T07:51:09Z</time>
      </trkpt>
      <trkpt lat="42.4511" lon="2.94235">
        <ele>455.959</ele>
        <time>2014-02-15T07:51:10Z</time>
      </trkpt>
      <trkpt lat="42.45111" lon="2.94234">
        <ele>455.914</ele>
        <time>2014-02-15T07:51:11Z</time>
      </trkpt>
      <trkpt lat="42.45112" lon="2.94232">
        <ele>455.907</ele>
        <time>2014-02-15T07:51:12Z</time>
      </trkpt>
      <trkpt lat="42.45114" lon="2.94231">
        <ele>455.591</ele>
        <time>2014-02-15T07:51:13Z</time>
      </trkpt>
      <trkpt lat="42.45115" lon="2.94231">
        <ele>455.256</ele>
        <time>2014-02-15T07:51:14Z</time>
      </trkpt>
      <trkpt lat="42.45117" lon="2.94232">
        <ele>455.09</ele>
        <time>2014-02-15T07:51:15Z</time>
      </trkpt>
      <trkpt lat="42.45119" lon="2.94233">
        <ele>456.167</ele>
        <time>2014-02-15T07:51:17Z</time>
      </trkpt>
      <trkpt lat="42.4512" lon="2.94234">
        <ele>456.481</ele>
        <time>2014-02-15T07:51:18Z</time>
      </trkpt>
      <trkpt lat="42.45121" lon="2.94234">
        <ele>456.854</ele>
        <time>2014-02-15T07:51:19Z</time>
      </trkpt>
      <trkpt lat="42.45122" lon="2.94235">
        <ele>457.016</ele>
        <time>2014-02-15T07:51:20Z</time>
      </trkpt>
      <trkpt lat="42.45124" lon="2.94236">
        <ele>457.585</ele>
        <time>2014-02-15T07:51:22Z</time>
      </trkpt>
      <trkpt lat="42.45129" lon="2.94239">
        <ele>458.589</ele>
        <time>2014-02-15T07:51:27Z</time>
      </trkpt>
      <trkpt lat="42.45131" lon="2.9424">
        <ele>458.817</ele>
        <time>2014-02-15T07:51:29Z</time>
      </trkpt>
      <trkpt lat="42.45132" lon="2.94241">
        <ele>458.807</ele>
        <time>2014-02-15T07:51:30Z</time>
      </trkpt>
      <trkpt lat="42.45132" lon="2.94242">
        <ele>458.814</ele>
        <time>2014-02-15T07:51:31Z</time>
      </trkpt>
      <trkpt lat="42.45133" lon="2.94242">
        <ele>459.079</ele>
        <time>2014-02-15T07:51:32Z</time>
      </trkpt>
      <trkpt lat="42.45134" lon="2.94243">
        <ele>459.253</ele>
        <time>2014-02-15T07:51:33Z</time>
      </trkpt>
      <trkpt lat="42.45135" lon="2.94243">
        <ele>459.31</ele>
        <time>2014-02-15T07:51:34Z</time>
      </trkpt>
      <trkpt lat="42.45136" lon="2.94244">
        <ele>459.544</ele>
        <time>2014-02-15T07:51:35Z</time>
      </trkpt>
      <trkpt lat="42.45137" lon="2.94244">
        <ele>459.797</ele>
        <time>2014-02-15T07:51:36Z</time>
      </trkpt>
      <trkpt lat="42.4514" lon="2.94246">
        <ele>460.349</ele>
        <time>2014-02-15T07:51:39Z</time>
      </trkpt>
      <trkpt lat="42.45142" lon="2.94248">
        <ele>460.653</ele>
        <time>2014-02-15T07:51:41Z</time>
      </trkpt>
      <trkpt lat="42.45143" lon="2.94249">
        <ele>461.304</ele>
        <time>2014-02-15T07:51:43Z</time>
      </trkpt>
      <trkpt lat="42.45151" lon="2.94257">
        <ele>460.914</ele>
        <time>2014-02-15T07:51:52Z</time>
      </trkpt>
      <trkpt lat="42.45157" lon="2.94263">
        <ele>461.607</ele>
        <time>2014-02-15T07:51:59Z</time>
      </trkpt>
      <trkpt lat="42.45158" lon="2.94264">
        <ele>461.541</ele>
        <time>2014-02-15T07:52:00Z</time>
      </trkpt>
      <trkpt lat="42.45159" lon="2.94264">
        <ele>461.826</ele>
        <time>2014-02-15T07:52:01Z</time>
      </trkpt>
      <trkpt lat="42.45164" lon="2.94269">
        <ele>462.35</ele>
        <time>2014-02-15T07:52:06Z</time>
      </trkpt>
      <trkpt lat="42.45168" lon="2.94271">
        <ele>463.317</ele>
        <time>2014-02-15T07:52:09Z</time>
      </trkpt>
      <trkpt lat="42.45169" lon="2.94272">
        <ele>463.621</ele>
        <time>2014-02-15T07:52:10Z</time>
      </trkpt>
      <trkpt lat="42.4517" lon="2.94273">
        <ele>463.894</ele>
        <time>2014-02-15T07:52:11Z</time>
      </trkpt>
      <trkpt lat="42.45171" lon="2.94274">
        <ele>464.076</ele>
        <time>2014-02-15T07:52:12Z</time>
      </trkpt>
      <trkpt lat="42.45172" lon="2.94275">
        <ele>464.028</ele>
        <time>2014-02-15T07:52:13Z</time>
      </trkpt>
      <trkpt lat="42.45173" lon="2.94276">
        <ele>463.989</ele>
        <time>2014-02-15T07:52:14Z</time>
      </trkpt>
      <trkpt lat="42.45175" lon="2.94276">
        <ele>463.917</ele>
        <time>2014-02-15T07:52:15Z</time>
      </trkpt>
      <trkpt lat="42.45176" lon="2.94275">
        <ele>463.907</ele>
        <time>2014-02-15T07:52:16Z</time>
      </trkpt>
      <trkpt lat="42.45177" lon="2.94272">
        <ele>464.368</ele>
        <time>2014-02-15T07:52:18Z</time>
      </trkpt>
      <trkpt lat="42.45178" lon="2.94269">
        <ele>464.663</ele>
        <time>2014-02-15T07:52:20Z</time>
      </trkpt>
      <trkpt lat="42.45178" lon="2.94268">
        <ele>464.727</ele>
        <time>2014-02-15T07:52:21Z</time>
      </trkpt>
      <trkpt lat="42.45177" lon="2.94266">
        <ele>464.824</ele>
        <time>2014-02-15T07:52:22Z</time>
      </trkpt>
      <trkpt lat="42.45177" lon="2.94265">
        <ele>464.748</ele>
        <time>2014-02-15T07:52:23Z</time>
      </trkpt>
      <trkpt lat="42.45176" lon="2.94264">
        <ele>464.681</ele>
        <time>2014-02-15T07:52:24Z</time>
      </trkpt>
      <trkpt lat="42.45175" lon="2.94262">
        <ele>464.673</ele>
        <time>2014-02-15T07:52:26Z</time>
      </trkpt>
      <trkpt lat="42.45174" lon="2.94259">
        <ele>464.735</ele>
        <time>2014-02-15T07:52:28Z</time>
      </trkpt>
      <trkpt lat="42.45173" lon="2.94258">
        <ele>464.986</ele>
        <time>2014-02-15T07:52:29Z</time>
      </trkpt>
      <trkpt lat="42.45172" lon="2.94257">
        <ele>465.014</ele>
        <time>2014-02-15T07:52:30Z</time>
      </trkpt>
      <trkpt lat="42.45172" lon="2.94253">
        <ele>465.507</ele>
        <time>2014-02-15T07:52:33Z</time>
      </trkpt>
      <trkpt lat="42.45171" lon="2.9425">
        <ele>466.139</ele>
        <time>2014-02-15T07:52:35Z</time>
      </trkpt>
      <trkpt lat="42.45171" lon="2.94249">
        <ele>466.574</ele>
        <time>2014-02-15T07:52:36Z</time>
      </trkpt>
      <trkpt lat="42.4517" lon="2.94247">
        <ele>466.728</ele>
        <time>2014-02-15T07:52:37Z</time>
      </trkpt>
      <trkpt lat="42.45167" lon="2.94237">
        <ele>466.755</ele>
        <time>2014-02-15T07:52:44Z</time>
      </trkpt>
      <trkpt lat="42.45165" lon="2.94234">
        <ele>467.329</ele>
        <time>2014-02-15T07:52:46Z</time>
      </trkpt>
      <trkpt lat="42.45163" lon="2.94228">
        <ele>468.092</ele>
        <time>2014-02-15T07:52:50Z</time>
      </trkpt>
      <trkpt lat="42.45163" lon="2.94226">
        <ele>468.124</ele>
        <time>2014-02-15T07:52:51Z</time>
      </trkpt>
      <trkpt lat="42.45159" lon="2.94217">
        <ele>468.753</ele>
        <time>2014-02-15T07:52:58Z</time>
      </trkpt>
      <trkpt lat="42.45158" lon="2.94212">
        <ele>469.304</ele>
        <time>2014-02-15T07:53:01Z</time>
      </trkpt>
      <trkpt lat="42.45158" lon="2.9421">
        <ele>469.414</ele>
        <time>2014-02-15T07:53:02Z</time>
      </trkpt>
      <trkpt lat="42.45158" lon="2.94208">
        <ele>469.507</ele>
        <time>2014-02-15T07:53:03Z</time>
      </trkpt>
      <trkpt lat="42.45158" lon="2.94206">
        <ele>469.631</ele>
        <time>2014-02-15T07:53:04Z</time>
      </trkpt>
      <trkpt lat="42.45158" lon="2.94205">
        <ele>469.836</ele>
        <time>2014-02-15T07:53:05Z</time>
      </trkpt>
      <trkpt lat="42.45157" lon="2.94203">
        <ele>469.97</ele>
        <time>2014-02-15T07:53:06Z</time>
      </trkpt>
      <trkpt lat="42.45158" lon="2.94198">
        <ele>470.247</ele>
        <time>2014-02-15T07:53:09Z</time>
      </trkpt>
      <trkpt lat="42.45161" lon="2.94192">
        <ele>470.821</ele>
        <time>2014-02-15T07:53:13Z</time>
      </trkpt>
      <trkpt lat="42.45164" lon="2.94187">
        <ele>470.644</ele>
        <time>2014-02-15T07:53:16Z</time>
      </trkpt>
      <trkpt lat="42.45165" lon="2.94185">
        <ele>470.716</ele>
        <time>2014-02-15T07:53:17Z</time>
      </trkpt>
      <trkpt lat="42.45169" lon="2.9418">
        <ele>470.945</ele>
        <time>2014-02-15T07:53:21Z</time>
      </trkpt>
      <trkpt lat="42.45171" lon="2.94179">
        <ele>471.047</ele>
        <time>2014-02-15T07:53:22Z</time>
      </trkpt>
      <trkpt lat="42.45182" lon="2.94168">
        <ele>471.011</ele>
        <time>2014-02-15T07:53:30Z</time>
      </trkpt>
      <trkpt lat="42.45213" lon="2.94144">
        <ele>471.707</ele>
        <time>2014-02-15T07:53:47Z</time>
      </trkpt>
      <trkpt lat="42.45215" lon="2.94142">
        <ele>471.75</ele>
        <time>2014-02-15T07:53:48Z</time>
      </trkpt>
      <trkpt lat="42.45218" lon="2.94139">
        <ele>471.925</ele>
        <time>2014-02-15T07:53:50Z</time>
      </trkpt>
      <trkpt lat="42.45221" lon="2.94135">
        <ele>471.989</ele>
        <time>2014-02-15T07:53:52Z</time>
      </trkpt>
      <trkpt lat="42.45233" lon="2.94112">
        <ele>471.956</ele>
        <time>2014-02-15T07:54:02Z</time>
      </trkpt>
      <trkpt lat="42.45245" lon="2.94082">
        <ele>473.37</ele>
        <time>2014-02-15T07:54:14Z</time>
      </trkpt>
      <trkpt lat="42.45265" lon="2.94045">
        <ele>474.973</ele>
        <time>2014-02-15T07:54:30Z</time>
      </trkpt>
      <trkpt lat="42.45273" lon="2.94027">
        <ele>476.275</ele>
        <time>2014-02-15T07:54:38Z</time>
      </trkpt>
      <trkpt lat="42.45278" lon="2.94019">
        <ele>477.359</ele>
        <time>2014-02-15T07:54:42Z</time>
      </trkpt>
      <trkpt lat="42.45291" lon="2.94004">
        <ele>477.803</ele>
        <time>2014-02-15T07:54:51Z</time>
      </trkpt>
      <trkpt lat="42.45293" lon="2.94003">
        <ele>477.823</ele>
        <time>2014-02-15T07:54:52Z</time>
      </trkpt>
      <trkpt lat="42.45329" lon="2.93975">
        <ele>480.807</ele>
        <time>2014-02-15T07:55:15Z</time>
      </trkpt>
      <trkpt lat="42.4533" lon="2.93974">
        <ele>480.961</ele>
        <time>2014-02-15T07:55:16Z</time>
      </trkpt>
      <trkpt lat="42.45331" lon="2.93972">
        <ele>481.116</ele>
        <time>2014-02-15T07:55:17Z</time>
      </trkpt>
      <trkpt lat="42.45333" lon="2.93969">
        <ele>481.17</ele>
        <time>2014-02-15T07:55:19Z</time>
      </trkpt>
      <trkpt lat="42.45335" lon="2.93968">
        <ele>481.137</ele>
        <time>2014-02-15T07:55:21Z</time>
      </trkpt>
      <trkpt lat="42.45335" lon="2.93967">
        <ele>481.571</ele>
        <time>2014-02-15T07:55:22Z</time>
      </trkpt>
      <trkpt lat="42.45336" lon="2.93967">
        <ele>481.934</ele>
        <time>2014-02-15T07:55:23Z</time>
      </trkpt>
      <trkpt lat="42.45336" lon="2.93967">
        <ele>482.166</ele>
        <time>2014-02-15T07:55:25Z</time>
      </trkpt>
      <trkpt lat="42.45336" lon="2.93966">
        <ele>482.095</ele>
        <time>2014-02-15T07:55:26Z</time>
      </trkpt>
      <trkpt lat="42.45336" lon="2.93966">
        <ele>482.049</ele>
        <time>2014-02-15T07:55:27Z</time>
      </trkpt>
      <trkpt lat="42.45337" lon="2.93966">
        <ele>482.123</ele>
        <time>2014-02-15T07:55:28Z</time>
      </trkpt>
      <trkpt lat="42.45337" lon="2.93966">
        <ele>482.107</ele>
        <time>2014-02-15T07:55:29Z</time>
      </trkpt>
      <trkpt lat="42.45337" lon="2.93966">
        <ele>482.115</ele>
        <time>2014-02-15T07:55:30Z</time>
      </trkpt>
      <trkpt lat="42.45337" lon="2.93966">
        <ele>482.44</ele>
        <time>2014-02-15T07:55:31Z</time>
      </trkpt>
      <trkpt lat="42.45338" lon="2.93966">
        <ele>482.564</ele>
        <time>2014-02-15T07:55:32Z</time>
      </trkpt>
      <trkpt lat="42.45338" lon="2.93966">
        <ele>482.741</ele>
        <time>2014-02-15T07:55:33Z</time>
      </trkpt>
      <trkpt lat="42.45338" lon="2.93966">
        <ele>482.885</ele>
        <time>2014-02-15T07:55:34Z</time>
      </trkpt>
      <trkpt lat="42.45338" lon="2.93966">
        <ele>482.568</ele>
        <time>2014-02-15T07:55:35Z</time>
      </trkpt>
      <trkpt lat="42.45338" lon="2.93965">
        <ele>482.46</ele>
        <time>2014-02-15T07:55:36Z</time>
      </trkpt>
      <trkpt lat="42.45339" lon="2.93965">
        <ele>482.285</ele>
        <time>2014-02-15T07:55:37Z</time>
      </trkpt>
      <trkpt lat="42.45339" lon="2.93965">
        <ele>482.289</ele>
        <time>2014-02-15T07:55:38Z</time>
      </trkpt>
      <trkpt lat="42.45339" lon="2.93965">
        <ele>482.117</ele>
        <time>2014-02-15T07:55:39Z</time>
      </trkpt>
      <trkpt lat="42.45339" lon="2.93965">
        <ele>482.107</ele>
        <time>2014-02-15T07:55:40Z</time>
      </trkpt>
      <trkpt lat="42.45339" lon="2.93965">
        <ele>482.054</ele>
        <time>2014-02-15T07:55:41Z</time>
      </trkpt>
      <trkpt lat="42.4534" lon="2.93965">
        <ele>481.969</ele>
        <time>2014-02-15T07:55:42Z</time>
      </trkpt>
      <trkpt lat="42.4534" lon="2.93965">
        <ele>481.883</ele>
        <time>2014-02-15T07:55:43Z</time>
      </trkpt>
      <trkpt lat="42.4534" lon="2.93965">
        <ele>481.93</ele>
        <time>2014-02-15T07:55:44Z</time>
      </trkpt>
      <trkpt lat="42.4534" lon="2.93965">
        <ele>482.064</ele>
        <time>2014-02-15T07:55:45Z</time>
      </trkpt>
      <trkpt lat="42.4534" lon="2.93964">
        <ele>482.087</ele>
        <time>2014-02-15T07:55:46Z</time>
      </trkpt>
      <trkpt lat="42.45341" lon="2.93964">
        <ele>482.129</ele>
        <time>2014-02-15T07:55:47Z</time>
      </trkpt>
      <trkpt lat="42.45341" lon="2.93964">
        <ele>482.246</ele>
        <time>2014-02-15T07:55:48Z</time>
      </trkpt>
      <trkpt lat="42.45341" lon="2.93964">
        <ele>482.388</ele>
        <time>2014-02-15T07:55:49Z</time>
      </trkpt>
      <trkpt lat="42.45341" lon="2.93964">
        <ele>482.316</ele>
        <time>2014-02-15T07:55:50Z</time>
      </trkpt>
      <trkpt lat="42.45342" lon="2.93964">
        <ele>482.707</ele>
        <time>2014-02-15T07:55:51Z</time>
      </trkpt>
      <trkpt lat="42.45342" lon="2.93963">
        <ele>482.99</ele>
        <time>2014-02-15T07:55:52Z</time>
      </trkpt>
      <trkpt lat="42.45342" lon="2.93963">
        <ele>483.155</ele>
        <time>2014-02-15T07:55:53Z</time>
      </trkpt>
      <trkpt lat="42.45342" lon="2.93963">
        <ele>482.549</ele>
        <time>2014-02-15T07:55:54Z</time>
      </trkpt>
      <trkpt lat="42.45342" lon="2.93963">
        <ele>482.126</ele>
        <time>2014-02-15T07:55:55Z</time>
      </trkpt>
      <trkpt lat="42.45343" lon="2.93963">
        <ele>481.85</ele>
        <time>2014-02-15T07:55:56Z</time>
      </trkpt>
      <trkpt lat="42.45343" lon="2.93963">
        <ele>482.073</ele>
        <time>2014-02-15T07:55:57Z</time>
      </trkpt>
      <trkpt lat="42.45343" lon="2.93963">
        <ele>482.195</ele>
        <time>2014-02-15T07:55:58Z</time>
      </trkpt>
      <trkpt lat="42.45343" lon="2.93962">
        <ele>482.281</ele>
        <time>2014-02-15T07:55:59Z</time>
      </trkpt>
      <trkpt lat="42.45343" lon="2.93962">
        <ele>482.361</ele>
        <time>2014-02-15T07:56:00Z</time>
      </trkpt>
      <trkpt lat="42.45343" lon="2.93962">
        <ele>482.317</ele>
        <time>2014-02-15T07:56:01Z</time>
      </trkpt>
      <trkpt lat="42.45344" lon="2.93961">
        <ele>482.807</ele>
        <time>2014-02-15T07:56:03Z</time>
      </trkpt>
      <trkpt lat="42.45344" lon="2.9396">
        <ele>483.124</ele>
        <time>2014-02-15T07:56:04Z</time>
      </trkpt>
      <trkpt lat="42.45345" lon="2.9396">
        <ele>483.419</ele>
        <time>2014-02-15T07:56:05Z</time>
      </trkpt>
      <trkpt lat="42.45366" lon="2.93942">
        <ele>484.893</ele>
        <time>2014-02-15T07:56:20Z</time>
      </trkpt>
      <trkpt lat="42.45368" lon="2.93939">
        <ele>485.45</ele>
        <time>2014-02-15T07:56:23Z</time>
      </trkpt>
      <trkpt lat="42.45368" lon="2.93938">
        <ele>485.574</ele>
        <time>2014-02-15T07:56:24Z</time>
      </trkpt>
      <trkpt lat="42.45368" lon="2.93938">
        <ele>485.657</ele>
        <time>2014-02-15T07:56:25Z</time>
      </trkpt>
      <trkpt lat="42.45368" lon="2.93938">
        <ele>485.879</ele>
        <time>2014-02-15T07:56:26Z</time>
      </trkpt>
      <trkpt lat="42.45369" lon="2.93937">
        <ele>486.094</ele>
        <time>2014-02-15T07:56:28Z</time>
      </trkpt>
      <trkpt lat="42.45368" lon="2.93936">
        <ele>485.957</ele>
        <time>2014-02-15T07:56:29Z</time>
      </trkpt>
      <trkpt lat="42.45368" lon="2.93934">
        <ele>485.922</ele>
        <time>2014-02-15T07:56:30Z</time>
      </trkpt>
      <trkpt lat="42.45367" lon="2.93932">
        <ele>485.907</ele>
        <time>2014-02-15T07:56:31Z</time>
      </trkpt>
      <trkpt lat="42.45366" lon="2.9393">
        <ele>486.165</ele>
        <time>2014-02-15T07:56:32Z</time>
      </trkpt>
      <trkpt lat="42.45365" lon="2.93928">
        <ele>486.26</ele>
        <time>2014-02-15T07:56:33Z</time>
      </trkpt>
      <trkpt lat="42.45362" lon="2.93927">
        <ele>486.284</ele>
        <time>2014-02-15T07:56:35Z</time>
      </trkpt>
      <trkpt lat="42.45359" lon="2.93927">
        <ele>486.181</ele>
        <time>2014-02-15T07:56:37Z</time>
      </trkpt>
      <trkpt lat="42.45349" lon="2.93927">
        <ele>485.995</ele>
        <time>2014-02-15T07:59:49Z</time>
      </trkpt>
      <trkpt lat="42.45345" lon="2.93928">
        <ele>486.278</ele>
        <time>2014-02-15T07:59:53Z</time>
      </trkpt>
      <trkpt lat="42.45342" lon="2.93929">
        <ele>486.81</ele>
        <time>2014-02-15T07:59:55Z</time>
      </trkpt>
      <trkpt lat="42.45303" lon="2.93935">
        <ele>488.216</ele>
        <time>2014-02-15T08:00:17Z</time>
      </trkpt>
      <trkpt lat="42.45301" lon="2.93936">
        <ele>488.376</ele>
        <time>2014-02-15T08:00:18Z</time>
      </trkpt>
      <trkpt lat="42.45247" lon="2.93944">
        <ele>490.113</ele>
        <time>2014-02-15T08:00:39Z</time>
      </trkpt>
      <trkpt lat="42.45217" lon="2.93956">
        <ele>490.507</ele>
        <time>2014-02-15T08:00:52Z</time>
      </trkpt>
      <trkpt lat="42.45215" lon="2.93956">
        <ele>490.677</ele>
        <time>2014-02-15T08:00:53Z</time>
      </trkpt>
      <trkpt lat="42.45162" lon="2.93967">
        <ele>492.512</ele>
        <time>2014-02-15T08:01:14Z</time>
      </trkpt>
      <trkpt lat="42.45157" lon="2.93966">
        <ele>492.996</ele>
        <time>2014-02-15T08:01:16Z</time>
      </trkpt>
      <trkpt lat="42.45155" lon="2.93966">
        <ele>493.013</ele>
        <time>2014-02-15T08:01:17Z</time>
      </trkpt>
      <trkpt lat="42.45154" lon="2.93966">
        <ele>493.287</ele>
        <time>2014-02-15T08:01:18Z</time>
      </trkpt>
      <trkpt lat="42.45154" lon="2.93966">
        <ele>493.19</ele>
        <time>2014-02-15T08:01:19Z</time>
      </trkpt>
      <trkpt lat="42.45154" lon="2.93966">
        <ele>493.152</ele>
        <time>2014-02-15T08:01:21Z</time>
      </trkpt>
      <trkpt lat="42.45154" lon="2.93967">
        <ele>493.352</ele>
        <time>2014-02-15T08:01:23Z</time>
      </trkpt>
      <trkpt lat="42.45153" lon="2.93967">
        <ele>493.653</ele>
        <time>2014-02-15T08:01:25Z</time>
      </trkpt>
      <trkpt lat="42.45153" lon="2.93967">
        <ele>493.708</ele>
        <time>2014-02-15T08:01:27Z</time>
      </trkpt>
      <trkpt lat="42.45153" lon="2.93967">
        <ele>494.007</ele>
        <time>2014-02-15T08:01:29Z</time>
      </trkpt>
      <trkpt lat="42.45152" lon="2.93967">
        <ele>494.151</ele>
        <time>2014-02-15T08:01:30Z</time>
      </trkpt>
      <trkpt lat="42.45152" lon="2.93967">
        <ele>494.266</ele>
        <time>2014-02-15T08:01:31Z</time>
      </trkpt>
      <trkpt lat="42.45152" lon="2.93967">
        <ele>494.09</ele>
        <time>2014-02-15T08:01:32Z</time>
      </trkpt>
      <trkpt lat="42.45152" lon="2.93968">
        <ele>493.937</ele>
        <time>2014-02-15T08:01:33Z</time>
      </trkpt>
      <trkpt lat="42.45152" lon="2.93968">
        <ele>493.881</ele>
        <time>2014-02-15T08:01:34Z</time>
      </trkpt>
      <trkpt lat="42.45152" lon="2.93968">
        <ele>493.684</ele>
        <time>2014-02-15T08:01:35Z</time>
      </trkpt>
      <trkpt lat="42.45152" lon="2.93968">
        <ele>493.486</ele>
        <time>2014-02-15T08:01:36Z</time>
      </trkpt>
      <trkpt lat="42.45152" lon="2.93968">
        <ele>493.398</ele>
        <time>2014-02-15T08:01:37Z</time>
      </trkpt>
      <trkpt lat="42.4515" lon="2.93969">
        <ele>493.415</ele>
        <time>2014-02-15T08:01:39Z</time>
      </trkpt>
      <trkpt lat="42.45149" lon="2.9397">
        <ele>493.526</ele>
        <time>2014-02-15T08:01:40Z</time>
      </trkpt>
      <trkpt lat="42.45136" lon="2.93972">
        <ele>493.107</ele>
        <time>2014-02-15T08:01:46Z</time>
      </trkpt>
      <trkpt lat="42.45126" lon="2.93974">
        <ele>494.195</ele>
        <time>2014-02-15T08:01:50Z</time>
      </trkpt>
      <trkpt lat="42.45104" lon="2.9398">
        <ele>493.96</ele>
        <time>2014-02-15T08:02:45Z</time>
      </trkpt>
      <trkpt lat="42.45101" lon="2.9398">
        <ele>493.924</ele>
        <time>2014-02-15T08:02:46Z</time>
      </trkpt>
      <trkpt lat="42.45076" lon="2.93983">
        <ele>494.221</ele>
        <time>2014-02-15T08:02:56Z</time>
      </trkpt>
      <trkpt lat="42.45073" lon="2.93982">
        <ele>494.385</ele>
        <time>2014-02-15T08:02:57Z</time>
      </trkpt>
      <trkpt lat="42.45071" lon="2.93982">
        <ele>494.498</ele>
        <time>2014-02-15T08:02:58Z</time>
      </trkpt>
      <trkpt lat="42.45069" lon="2.93982">
        <ele>494.56</ele>
        <time>2014-02-15T08:02:59Z</time>
      </trkpt>
      <trkpt lat="42.45065" lon="2.93983">
        <ele>494.679</ele>
        <time>2014-02-15T08:03:01Z</time>
      </trkpt>
    </trkseg>
  </trk>
</gpx>